Time,TemperatureF,DewpointF,PressureIn,WindDirection,WindDirectionDegrees,WindSpeedMPH,WindSpeedGustMPH,Humidity,HourlyPrecipIn,Conditions,Clouds,dailyrainin,SolarRadiationWatts/m^2,SoftwareType,DateUTC
2013-06-28 00:00:00,66.5,55.6,30.06,NE,56,4.0,4.0,68,0.00,BKN,,0.00,0.0,WeatherDisplay:10.37,2013-06-27 22:00:00,
2013-06-28 00:03:00,66.5,55.6,30.06,NE,50,4.0,4.0,68,0.00,BKN,,0.00,0.0,WeatherDisplay:10.37,2013-06-27 22:03:00,
2013-06-28 00:04:00,66.5,55.6,30.07,ENE,71,4.0,4.0,68,0.00,BKN,,0.00,0.0,WeatherDisplay:10.37,2013-06-27 22:04:00,
2013-06-28 00:05:00,66.5,56.0,30.07,ENE,63,4.0,4.1,69,0.00,BKN,,0.00,0.0,WeatherDisplay:10.37,2013-06-27 22:05:00,
2013-06-28 00:08:00,66.4,55.9,30.07,ENE,67,2.3,2.3,69,0.00,BKN,,0.00,0.0,WeatherDisplay:10.37,2013-06-27 22:08:00,
2013-06-28 00:09:00,66.4,55.9,30.07,ENE,68,2.3,2.3,69,0.00,BKN,,0.00,0.0,WeatherDisplay:10.37,2013-06-27 22:09:00,
2013-06-28 00:10:00,66.4,55.9,30.07,NE,55,2.3,2.3,69,0.00,BKN,,0.00,0.0,WeatherDisplay:10.37,2013-06-27 22:10:00,
2013-06-28 00:11:00,66.4,55.9,30.06,NE,42,5.0,5.0,69,0.00,BKN,,0.00,0.0,WeatherDisplay:10.37,2013-06-27 22:11:00,
2013-06-28 00:14:00,66.4,55.9,30.06,NE,53,5.8,5.8,69,0.00,BKN,,0.00,0.0,WeatherDisplay:10.37,2013-06-27 22:14:00,
2013-06-28 00:15:00,66.3,55.8,30.07,NE,48,4.6,4.6,69,0.00,BKN,,0.00,0.0,WeatherDisplay:10.37,2013-06-27 22:15:00,
2013-06-28 00:16:00,66.3,55.8,30.06,ENE,58,3.5,3.5,69,0.00,BKN,,0.00,0.0,WeatherDisplay:10.37,2013-06-27 22:16:00,
2013-06-28 00:19:00,66.3,55.8,30.06,ENE,63,4.0,4.0,69,0.00,BKN,,0.00,0.0,WeatherDisplay:10.37,2013-06-27 22:19:00,
2013-06-28 00:21:00,66.3,55.8,30.07,NE,40,3.5,3.5,69,0.00,BKN,,0.00,0.0,WeatherDisplay:10.37,2013-06-27 22:21:00,
2013-06-28 00:24:00,66.3,55.8,30.06,NE,44,3.5,3.5,69,0.00,BKN,,0.00,0.0,WeatherDisplay:10.37,2013-06-27 22:24:00,
2013-06-28 00:26:00,66.3,55.8,30.06,ENE,58,3.5,3.5,69,0.00,BKN,,0.00,0.0,WeatherDisplay:10.37,2013-06-27 22:26:00,
2013-06-28 00:27:00,66.2,55.7,30.06,NE,45,4.6,4.6,69,0.00,BKN,,0.00,0.0,WeatherDisplay:10.37,2013-06-27 22:27:00,
2013-06-28 00:29:00,66.2,55.7,30.06,NE,46,4.0,4.0,69,0.00,BKN,,0.00,0.0,WeatherDisplay:10.37,2013-06-27 22:29:00,
2013-06-28 00:32:00,66.2,55.7,30.06,NE,53,6.0,6.0,69,0.00,BKN,,0.00,0.0,WeatherDisplay:10.37,2013-06-27 22:32:00,
2013-06-28 00:34:00,66.2,55.7,30.06,ENE,63,4.6,4.6,69,0.00,BKN,,0.00,0.0,WeatherDisplay:10.37,2013-06-27 22:34:00,
2013-06-28 00:37:00,66.1,55.6,30.06,ENE,59,4.0,4.0,69,0.00,BKN,,0.00,0.0,WeatherDisplay:10.37,2013-06-27 22:37:00,
2013-06-28 00:40:00,66.1,55.6,30.06,NE,55,3.5,3.5,69,0.00,BKN,,0.00,0.0,WeatherDisplay:10.37,2013-06-27 22:40:00,
2013-06-28 00:42:00,66.1,55.6,30.06,NE,42,4.6,4.6,69,0.00,BKN,,0.00,0.0,WeatherDisplay:10.37,2013-06-27 22:42:00,
2013-06-28 00:43:00,66.1,55.6,30.06,NE,42,4.6,4.6,69,0.00,BKN,,0.00,0.0,WeatherDisplay:10.37,2013-06-27 22:43:00,
2013-06-28 00:44:00,66.1,55.6,30.06,NE,46,4.6,4.6,69,0.00,BKN,,0.00,0.0,WeatherDisplay:10.37,2013-06-27 22:44:00,
2013-06-28 00:45:00,66.1,55.6,30.06,NE,48,4.6,4.6,69,0.00,BKN,,0.00,0.0,WeatherDisplay:10.37,2013-06-27 22:45:00,
2013-06-28 00:48:00,66.0,55.5,30.06,NE,51,3.5,3.5,69,0.00,BKN,,0.00,0.0,WeatherDisplay:10.37,2013-06-27 22:48:00,
2013-06-28 00:49:00,66.0,55.5,30.06,NE,54,4.0,4.0,69,0.00,BKN,,0.00,0.0,WeatherDisplay:10.37,2013-06-27 22:49:00,
2013-06-28 00:51:00,66.0,55.5,30.06,ENE,70,4.6,4.6,69,0.00,BKN,,0.00,0.0,WeatherDisplay:10.37,2013-06-27 22:51:00,
2013-06-28 00:53:00,66.0,55.5,30.06,East,85,3.5,3.5,69,0.00,BKN,,0.00,0.0,WeatherDisplay:10.37,2013-06-27 22:53:00,
2013-06-28 00:54:00,66.0,55.5,30.06,ENE,65,3.5,3.5,69,0.00,BKN,,0.00,0.0,WeatherDisplay:10.37,2013-06-27 22:54:00,
2013-06-28 00:57:00,66.0,55.5,30.06,ENE,70,4.6,4.6,69,0.00,BKN,,0.00,0.0,WeatherDisplay:10.37,2013-06-27 22:57:00,
2013-06-28 00:58:00,66.0,55.5,30.06,ENE,73,3.5,3.5,69,0.00,BKN,,0.00,0.0,WeatherDisplay:10.37,2013-06-27 22:58:00,
2013-06-28 00:59:00,66.0,55.5,30.06,ENE,74,6.0,6.0,69,0.00,BKN,,0.00,0.0,WeatherDisplay:10.37,2013-06-27 22:59:00,
2013-06-28 01:03:00,66.0,55.5,30.06,ENE,72,3.5,3.5,69,0.00,BKN,,0.00,0.0,WeatherDisplay:10.37,2013-06-27 23:03:00,
2013-06-28 01:04:00,66.0,55.5,30.06,East,91,3.5,3.5,69,0.00,BKN,,0.00,0.0,WeatherDisplay:10.37,2013-06-27 23:04:00,
2013-06-28 01:08:00,66.0,55.5,30.06,NE,49,5.8,5.8,69,0.00,BKN,,0.00,0.0,WeatherDisplay:10.37,2013-06-27 23:08:00,
2013-06-28 01:09:00,66.0,55.5,30.06,NE,55,4.6,4.6,69,0.00,BKN,,0.00,0.0,WeatherDisplay:10.37,2013-06-27 23:09:00,
2013-06-28 01:10:00,66.0,55.5,30.06,NE,47,4.6,4.6,69,0.00,BKN,,0.00,0.0,WeatherDisplay:10.37,2013-06-27 23:10:00,
2013-06-28 01:13:00,66.0,55.5,30.06,ENE,62,3.5,3.5,69,0.00,BKN,,0.00,0.0,WeatherDisplay:10.37,2013-06-27 23:13:00,
2013-06-28 01:14:00,66.0,55.5,30.06,ENE,72,3.5,3.5,69,0.00,BKN,,0.00,0.0,WeatherDisplay:10.37,2013-06-27 23:14:00,
2013-06-28 01:15:00,66.0,55.5,30.06,East,81,3.5,3.5,69,0.00,BKN,,0.00,0.0,WeatherDisplay:10.37,2013-06-27 23:15:00,
2013-06-28 01:19:00,66.0,55.5,30.06,NE,51,3.5,3.5,69,0.00,BKN,,0.00,0.0,WeatherDisplay:10.37,2013-06-27 23:19:00,
2013-06-28 01:20:00,66.0,55.5,30.06,ENE,57,5.0,5.0,69,0.00,BKN,,0.00,0.0,WeatherDisplay:10.37,2013-06-27 23:20:00,
2013-06-28 01:21:00,66.0,55.5,30.06,NE,55,4.6,4.6,69,0.00,BKN,,0.00,0.0,WeatherDisplay:10.37,2013-06-27 23:21:00,
2013-06-28 01:24:00,66.0,55.5,30.06,NE,49,6.9,6.9,69,0.00,BKN,,0.00,0.0,WeatherDisplay:10.37,2013-06-27 23:24:00,
2013-06-28 01:25:00,66.0,55.5,30.06,ENE,58,5.8,5.8,69,0.00,BKN,,0.00,0.0,WeatherDisplay:10.37,2013-06-27 23:25:00,
2013-06-28 01:26:00,66.0,55.5,30.06,NE,45,4.0,4.0,69,0.00,BKN,,0.00,0.0,WeatherDisplay:10.37,2013-06-27 23:26:00,
2013-06-28 01:29:00,66.0,55.5,30.06,ENE,65,3.5,3.5,69,0.00,BKN,,0.00,0.0,WeatherDisplay:10.37,2013-06-27 23:29:00,
2013-06-28 01:30:00,66.0,55.5,30.06,ENE,65,3.5,3.5,69,0.00,BKN,,0.00,0.0,WeatherDisplay:10.37,2013-06-27 23:30:00,
2013-06-28 01:31:00,66.0,55.5,30.06,NE,50,3.5,3.5,69,0.00,BKN,,0.00,0.0,WeatherDisplay:10.37,2013-06-27 23:31:00,
2013-06-28 01:32:00,66.0,55.5,30.06,ENE,67,3.5,3.5,69,0.00,BKN,,0.00,0.0,WeatherDisplay:10.37,2013-06-27 23:32:00,
2013-06-28 01:34:00,66.0,55.5,30.06,NE,42,3.5,3.5,69,0.00,BKN,,0.00,0.0,WeatherDisplay:10.37,2013-06-27 23:34:00,
2013-06-28 01:35:00,66.0,55.5,30.06,NE,53,2.3,2.3,69,0.00,BKN,,0.00,0.0,WeatherDisplay:10.37,2013-06-27 23:35:00,
2013-06-28 01:37:00,66.0,55.5,30.06,NE,38,0.0,0.0,69,0.00,BKN,,0.00,0.0,WeatherDisplay:10.37,2013-06-27 23:37:00,
2013-06-28 01:38:00,66.0,55.5,30.06,ENE,57,3.5,3.5,69,0.00,BKN,,0.00,0.0,WeatherDisplay:10.37,2013-06-27 23:38:00,
2013-06-28 01:40:00,65.9,55.4,30.06,ENE,62,3.5,3.5,69,0.00,BKN,,0.00,0.0,WeatherDisplay:10.37,2013-06-27 23:40:00,
2013-06-28 01:41:00,65.9,55.4,30.06,NE,55,4.6,4.6,69,0.00,BKN,,0.00,0.0,WeatherDisplay:10.37,2013-06-27 23:41:00,
2013-06-28 01:43:00,65.9,55.4,30.06,ENE,58,4.6,4.6,69,0.00,BKN,,0.00,0.0,WeatherDisplay:10.37,2013-06-27 23:43:00,
2013-06-28 01:45:00,65.9,55.4,30.06,NE,53,3.5,3.5,69,0.00,BKN,,0.00,0.0,WeatherDisplay:10.37,2013-06-27 23:45:00,
2013-06-28 01:46:00,65.8,55.3,30.05,NE,49,3.5,3.5,69,0.00,BKN,,0.00,0.0,WeatherDisplay:10.37,2013-06-27 23:46:00,
2013-06-28 01:49:00,65.8,55.3,30.05,ENE,59,2.3,2.3,69,0.00,BKN,,0.00,0.0,WeatherDisplay:10.37,2013-06-27 23:49:00,
2013-06-28 01:50:00,65.7,55.2,30.05,NE,55,4.6,4.6,69,0.00,BKN,,0.00,0.0,WeatherDisplay:10.37,2013-06-27 23:50:00,
2013-06-28 01:51:00,65.7,55.6,30.05,ENE,71,4.6,4.6,70,0.00,BKN,,0.00,0.0,WeatherDisplay:10.37,2013-06-27 23:51:00,
2013-06-28 01:52:00,65.7,55.6,30.05,NE,54,0.0,0.0,70,0.00,BKN,,0.00,0.0,WeatherDisplay:10.37,2013-06-27 23:52:00,
2013-06-28 01:55:00,65.7,55.6,30.05,East,81,3.5,3.5,70,0.00,BKN,,0.00,0.0,WeatherDisplay:10.37,2013-06-27 23:55:00,
2013-06-28 01:56:00,65.6,55.5,30.06,ENE,59,3.5,3.5,70,0.00,BKN,,0.00,0.0,WeatherDisplay:10.37,2013-06-27 23:56:00,
2013-06-28 01:57:00,65.6,55.5,30.05,ENE,60,3.5,3.5,70,0.00,BKN,,0.00,0.0,WeatherDisplay:10.37,2013-06-27 23:57:00,
2013-06-28 02:00:00,65.6,55.5,30.05,ENE,78,3.5,3.5,70,0.00,BKN,,0.00,0.0,WeatherDisplay:10.37,2013-06-28 00:00:00,
2013-06-28 02:02:00,65.6,55.5,30.05,ENE,73,3.5,3.5,70,0.00,BKN,,0.00,0.0,WeatherDisplay:10.37,2013-06-28 00:02:00,
2013-06-28 02:03:00,65.5,55.5,30.05,ENE,61,3.5,3.5,70,0.00,BKN,,0.00,0.0,WeatherDisplay:10.37,2013-06-28 00:03:00,
2013-06-28 02:06:00,65.5,55.5,30.05,NE,48,3.5,3.5,70,0.00,BKN,,0.00,0.0,WeatherDisplay:10.37,2013-06-28 00:06:00,
2013-06-28 02:07:00,65.5,55.5,30.06,NE,45,3.5,3.5,70,0.00,BKN,,0.00,0.0,WeatherDisplay:10.37,2013-06-28 00:07:00,
2013-06-28 02:09:00,65.4,55.4,30.05,NE,43,3.5,3.5,70,0.00,BKN,,0.00,0.0,WeatherDisplay:10.37,2013-06-28 00:09:00,
2013-06-28 02:11:00,65.4,55.4,30.05,ENE,76,2.0,2.0,70,0.00,BKN,,0.00,0.0,WeatherDisplay:10.37,2013-06-28 00:11:00,
2013-06-28 02:12:00,65.4,55.4,30.05,ENE,76,3.0,3.0,70,0.00,BKN,,0.00,0.0,WeatherDisplay:10.37,2013-06-28 00:12:00,
2013-06-28 02:14:00,65.4,55.4,30.05,NE,51,3.5,3.5,70,0.00,BKN,,0.00,0.0,WeatherDisplay:10.37,2013-06-28 00:14:00,
2013-06-28 02:17:00,65.3,55.3,30.05,NE,55,2.3,2.3,70,0.00,BKN,,0.00,0.0,WeatherDisplay:10.37,2013-06-28 00:17:00,
2013-06-28 02:18:00,65.3,55.3,30.05,NE,55,2.3,2.3,70,0.00,BKN,,0.00,0.0,WeatherDisplay:10.37,2013-06-28 00:18:00,
2013-06-28 02:19:00,65.3,55.3,30.05,NE,55,2.0,2.0,70,0.00,BKN,,0.00,0.0,WeatherDisplay:10.37,2013-06-28 00:19:00,
2013-06-28 02:22:00,65.3,55.3,30.05,NE,45,3.5,3.5,70,0.00,BKN,,0.00,0.0,WeatherDisplay:10.37,2013-06-28 00:22:00,
2013-06-28 02:24:00,65.2,55.2,30.05,NE,52,3.5,3.5,70,0.00,BKN,,0.00,0.0,WeatherDisplay:10.37,2013-06-28 00:24:00,
2013-06-28 02:25:00,65.2,55.6,30.05,NE,51,3.5,3.5,71,0.00,BKN,,0.00,0.0,WeatherDisplay:10.37,2013-06-28 00:25:00,
2013-06-28 02:27:00,65.2,55.6,30.05,NE,43,3.5,3.5,71,0.00,BKN,,0.00,0.0,WeatherDisplay:10.37,2013-06-28 00:27:00,
2013-06-28 02:29:00,65.1,55.5,30.05,NE,54,3.5,3.5,71,0.00,BKN,,0.00,0.0,WeatherDisplay:10.37,2013-06-28 00:29:00,
2013-06-28 02:31:00,65.1,55.5,30.05,ENE,57,1.1,1.7,71,0.00,BKN,,0.00,0.0,WeatherDisplay:10.37,2013-06-28 00:31:00,
2013-06-28 02:32:00,65.1,55.5,30.05,ENE,67,4.0,4.0,71,0.00,BKN,,0.00,0.0,WeatherDisplay:10.37,2013-06-28 00:32:00,
2013-06-28 02:33:00,65.1,55.5,30.05,NE,56,3.0,3.0,71,0.00,BKN,,0.00,0.0,WeatherDisplay:10.37,2013-06-28 00:33:00,
2013-06-28 02:34:00,65.1,55.5,30.05,NE,54,3.5,3.5,71,0.00,BKN,,0.00,0.0,WeatherDisplay:10.37,2013-06-28 00:34:00,
2013-06-28 02:36:00,65.0,55.4,30.05,NE,54,0.0,0.0,71,0.00,BKN,,0.00,0.0,WeatherDisplay:10.37,2013-06-28 00:36:00,
2013-06-28 02:38:00,65.0,55.4,30.05,NE,54,0.0,0.0,71,0.00,BKN,,0.00,0.0,WeatherDisplay:10.37,2013-06-28 00:38:00,
2013-06-28 02:39:00,65.0,55.4,30.05,NE,54,0.0,0.0,71,0.00,BKN,,0.00,0.0,WeatherDisplay:10.37,2013-06-28 00:39:00,
2013-06-28 02:41:00,65.0,55.4,30.05,NE,54,0.0,0.0,71,0.00,BKN,,0.00,0.0,WeatherDisplay:10.37,2013-06-28 00:41:00,
2013-06-28 02:43:00,64.9,55.3,30.05,NE,49,3.5,3.5,71,0.00,BKN,,0.00,0.0,WeatherDisplay:10.37,2013-06-28 00:43:00,
2013-06-28 02:45:00,64.9,55.3,30.05,NE,49,0.0,0.0,71,0.00,BKN,,0.00,0.0,WeatherDisplay:10.37,2013-06-28 00:45:00,
2013-06-28 02:47:00,64.9,55.3,30.05,NE,49,0.0,0.0,71,0.00,BKN,,0.00,0.0,WeatherDisplay:10.37,2013-06-28 00:47:00,
2013-06-28 02:48:00,64.9,55.3,30.05,NE,49,0.0,0.0,71,0.00,BKN,,0.00,0.0,WeatherDisplay:10.37,2013-06-28 00:48:00,
2013-06-28 02:49:00,64.9,55.3,30.05,NE,49,0.0,0.0,71,0.00,BKN,,0.00,0.0,WeatherDisplay:10.37,2013-06-28 00:49:00,
2013-06-28 02:52:00,64.8,55.2,30.05,NE,49,0.0,0.0,71,0.00,BKN,,0.00,0.0,WeatherDisplay:10.37,2013-06-28 00:52:00,
2013-06-28 02:54:00,64.8,55.2,30.05,NE,49,0.0,0.0,71,0.00,BKN,,0.00,0.0,WeatherDisplay:10.37,2013-06-28 00:54:00,
2013-06-28 02:57:00,64.7,55.1,30.05,NE,49,0.0,0.0,71,0.00,BKN,,0.00,0.0,WeatherDisplay:10.37,2013-06-28 00:57:00,
2013-06-28 02:59:00,64.7,55.1,30.05,NE,49,0.0,0.0,71,0.00,BKN,,0.00,0.0,WeatherDisplay:10.37,2013-06-28 00:59:00,
2013-06-28 03:00:00,64.7,55.1,30.05,NE,49,0.0,0.0,71,0.00,BKN,,0.00,0.0,WeatherDisplay:10.37,2013-06-28 01:00:00,
2013-06-28 03:03:00,64.7,55.1,30.05,NE,49,0.0,0.0,71,0.00,BKN,,0.00,0.0,WeatherDisplay:10.37,2013-06-28 01:03:00,
2013-06-28 03:04:00,64.6,55.0,30.05,NE,49,0.0,0.0,71,0.00,BKN,,0.00,0.0,WeatherDisplay:10.37,2013-06-28 01:04:00,
2013-06-28 03:05:00,64.6,55.0,30.05,NE,49,0.0,0.0,71,0.00,BKN,,0.00,0.0,WeatherDisplay:10.37,2013-06-28 01:05:00,
2013-06-28 03:08:00,64.6,55.0,30.05,NE,49,0.0,0.0,71,0.00,BKN,,0.00,0.0,WeatherDisplay:10.37,2013-06-28 01:08:00,
2013-06-28 03:09:00,64.5,54.9,30.05,NNE,30,2.3,2.3,71,0.00,BKN,,0.00,0.0,WeatherDisplay:10.37,2013-06-28 01:09:00,
2013-06-28 03:11:00,64.5,54.9,30.05,NNE,22,2.3,2.3,71,0.00,BKN,,0.00,0.0,WeatherDisplay:10.37,2013-06-28 01:11:00,
2013-06-28 03:13:00,64.4,54.8,30.05,NNE,22,0.0,0.0,71,0.00,BKN,,0.00,0.0,WeatherDisplay:10.37,2013-06-28 01:13:00,
2013-06-28 03:15:00,64.4,54.8,30.05,NNE,22,0.0,0.0,71,0.00,BKN,,0.00,0.0,WeatherDisplay:10.37,2013-06-28 01:15:00,
2013-06-28 03:17:00,64.4,54.8,30.05,NNE,22,0.0,0.0,71,0.00,BKN,,0.00,0.0,WeatherDisplay:10.37,2013-06-28 01:17:00,
2013-06-28 03:18:00,64.3,54.7,30.05,NNE,22,0.0,0.0,71,0.00,BKN,,0.00,0.0,WeatherDisplay:10.37,2013-06-28 01:18:00,
2013-06-28 03:20:00,64.3,54.7,30.05,NNE,22,0.0,0.0,71,0.00,BKN,,0.00,0.0,WeatherDisplay:10.37,2013-06-28 01:20:00,
2013-06-28 03:21:00,64.3,54.7,30.05,NNE,22,0.0,0.0,71,0.00,BKN,,0.00,0.0,WeatherDisplay:10.37,2013-06-28 01:21:00,
2013-06-28 03:22:00,64.2,54.6,30.05,NNE,22,0.0,0.0,71,0.00,BKN,,0.00,0.0,WeatherDisplay:10.37,2013-06-28 01:22:00,
2013-06-28 03:24:00,64.2,54.6,30.05,NNE,22,0.0,0.0,71,0.00,BKN,,0.00,0.0,WeatherDisplay:10.37,2013-06-28 01:24:00,
2013-06-28 03:25:00,64.2,54.6,30.05,NNE,22,0.0,0.0,71,0.00,BKN,,0.00,0.0,WeatherDisplay:10.37,2013-06-28 01:25:00,
2013-06-28 03:26:00,64.1,54.9,30.05,NNE,22,0.0,0.0,72,0.00,BKN,,0.00,0.0,WeatherDisplay:10.37,2013-06-28 01:26:00,
2013-06-28 03:27:00,64.1,54.9,30.05,NNE,22,0.0,0.0,72,0.00,BKN,,0.00,0.0,WeatherDisplay:10.37,2013-06-28 01:27:00,
2013-06-28 03:29:00,64.1,54.9,30.05,NNE,22,0.0,0.0,72,0.00,BKN,,0.00,0.0,WeatherDisplay:10.37,2013-06-28 01:29:00,
2013-06-28 03:30:00,64.0,54.8,30.05,NNE,22,0.0,0.0,72,0.00,BKN,,0.00,0.0,WeatherDisplay:10.37,2013-06-28 01:30:00,
2013-06-28 03:32:00,64.0,54.8,30.05,NNE,22,0.0,0.0,72,0.00,BKN,,0.00,0.0,WeatherDisplay:10.37,2013-06-28 01:32:00,
2013-06-28 03:33:00,64.0,54.8,30.05,NNE,22,0.0,0.0,72,0.00,BKN,,0.00,0.0,WeatherDisplay:10.37,2013-06-28 01:33:00,
2013-06-28 03:34:00,64.0,54.8,30.05,NNE,22,0.0,0.0,72,0.00,BKN,,0.00,0.0,WeatherDisplay:10.37,2013-06-28 01:34:00,
2013-06-28 03:35:00,64.0,54.8,30.05,NNE,22,0.0,0.0,72,0.00,BKN,,0.00,0.0,WeatherDisplay:10.37,2013-06-28 01:35:00,
2013-06-28 03:38:00,63.9,54.7,30.05,NNE,22,1.1,0.0,72,0.00,BKN,,0.00,0.0,WeatherDisplay:10.37,2013-06-28 01:38:00,
2013-06-28 03:39:00,63.9,54.7,30.05,NNE,22,1.1,0.0,72,0.00,BKN,,0.00,0.0,WeatherDisplay:10.37,2013-06-28 01:39:00,
2013-06-28 03:40:00,63.9,55.1,30.05,NNE,22,0.0,0.0,73,0.00,BKN,,0.00,0.0,WeatherDisplay:10.37,2013-06-28 01:40:00,
2013-06-28 03:43:00,63.8,54.6,30.05,NNE,22,0.0,0.0,72,0.00,BKN,,0.00,0.0,WeatherDisplay:10.37,2013-06-28 01:43:00,
2013-06-28 03:44:00,63.8,55.0,30.05,NNE,22,0.0,0.0,73,0.00,BKN,,0.00,0.0,WeatherDisplay:10.37,2013-06-28 01:44:00,
2013-06-28 03:46:00,63.7,54.9,30.05,NNE,22,0.0,0.0,73,0.00,BKN,,0.00,0.0,WeatherDisplay:10.37,2013-06-28 01:46:00,
2013-06-28 03:48:00,63.7,54.9,30.05,NNE,22,0.0,0.0,73,0.00,BKN,,0.00,0.0,WeatherDisplay:10.37,2013-06-28 01:48:00,
2013-06-28 03:49:00,63.7,54.9,30.05,NNE,22,0.0,0.0,73,0.00,BKN,,0.00,0.0,WeatherDisplay:10.37,2013-06-28 01:49:00,
2013-06-28 03:52:00,63.7,54.9,30.05,NNE,22,0.0,0.0,73,0.00,BKN,,0.00,0.0,WeatherDisplay:10.37,2013-06-28 01:52:00,
2013-06-28 03:53:00,63.7,55.3,30.05,NNE,22,0.0,0.0,74,0.00,BKN,,0.00,0.0,WeatherDisplay:10.37,2013-06-28 01:53:00,
2013-06-28 03:54:00,63.7,55.3,30.05,NNE,22,0.0,0.0,74,0.00,BKN,,0.00,0.0,WeatherDisplay:10.37,2013-06-28 01:54:00,
2013-06-28 03:56:00,63.7,55.3,30.05,NNE,22,0.0,0.0,74,0.00,BKN,,0.00,0.0,WeatherDisplay:10.37,2013-06-28 01:56:00,
2013-06-28 03:57:00,63.7,55.3,30.05,NNE,22,0.0,0.0,74,0.00,BKN,,0.00,0.0,WeatherDisplay:10.37,2013-06-28 01:57:00,
2013-06-28 03:59:00,63.6,55.2,30.05,NE,37,0.0,0.0,74,0.00,BKN,,0.00,0.0,WeatherDisplay:10.37,2013-06-28 01:59:00,
2013-06-28 04:02:00,63.6,55.5,30.05,NE,39,0.0,0.0,75,0.00,BKN,,0.00,0.0,WeatherDisplay:10.37,2013-06-28 02:02:00,
2013-06-28 04:03:00,63.6,55.5,30.05,NE,39,0.0,0.0,75,0.00,BKN,,0.00,0.0,WeatherDisplay:10.37,2013-06-28 02:03:00,
2013-06-28 04:04:00,63.6,55.5,30.05,NE,39,0.0,0.0,75,0.00,BKN,,0.00,0.0,WeatherDisplay:10.37,2013-06-28 02:04:00,
2013-06-28 04:05:00,63.6,55.5,30.05,NE,39,0.0,0.0,75,0.00,BKN,,0.00,0.0,WeatherDisplay:10.37,2013-06-28 02:05:00,
2013-06-28 04:07:00,63.6,55.5,30.05,NE,39,0.0,0.0,75,0.00,BKN,,0.00,0.0,WeatherDisplay:10.37,2013-06-28 02:07:00,
2013-06-28 04:08:00,63.6,55.5,30.05,NE,39,0.0,0.0,75,0.00,BKN,,0.00,0.0,WeatherDisplay:10.37,2013-06-28 02:08:00,
2013-06-28 04:09:00,63.6,55.5,30.05,NE,39,0.0,0.0,75,0.00,BKN,,0.00,0.0,WeatherDisplay:10.37,2013-06-28 02:09:00,
2013-06-28 04:10:00,63.6,55.5,30.05,NE,39,0.0,0.0,75,0.00,BKN,,0.00,0.0,WeatherDisplay:10.37,2013-06-28 02:10:00,
2013-06-28 04:12:00,63.6,55.5,30.05,NE,39,0.0,0.0,75,0.00,BKN,,0.00,0.0,WeatherDisplay:10.37,2013-06-28 02:12:00,
2013-06-28 04:14:00,63.6,55.5,30.05,NE,39,0.0,0.0,75,0.00,BKN,,0.00,0.0,WeatherDisplay:10.37,2013-06-28 02:14:00,
2013-06-28 04:15:00,63.6,55.5,30.05,NE,39,1.1,0.0,75,0.00,BKN,,0.00,0.0,WeatherDisplay:10.37,2013-06-28 02:15:00,
2013-06-28 04:18:00,63.6,55.5,30.05,NE,39,0.0,0.0,75,0.00,BKN,,0.00,0.0,WeatherDisplay:10.37,2013-06-28 02:18:00,
2013-06-28 04:20:00,63.6,55.5,30.05,NE,39,0.0,0.0,75,0.00,BKN,,0.00,0.0,WeatherDisplay:10.37,2013-06-28 02:20:00,
2013-06-28 04:21:00,63.6,55.5,30.05,NE,39,0.0,0.0,75,0.00,BKN,,0.00,0.0,WeatherDisplay:10.37,2013-06-28 02:21:00,
2013-06-28 04:23:00,63.6,55.5,30.05,NE,39,0.0,0.0,75,0.00,BKN,,0.00,0.0,WeatherDisplay:10.37,2013-06-28 02:23:00,
2013-06-28 04:25:00,63.6,55.5,30.05,NE,39,0.0,0.0,75,0.00,BKN,,0.00,0.0,WeatherDisplay:10.37,2013-06-28 02:25:00,
2013-06-28 04:27:00,63.6,55.5,30.05,NE,39,0.0,0.0,75,0.00,BKN,,0.00,0.0,WeatherDisplay:10.37,2013-06-28 02:27:00,
2013-06-28 04:29:00,63.5,55.4,30.05,NE,39,0.0,0.0,75,0.00,BKN,,0.00,0.0,WeatherDisplay:10.37,2013-06-28 02:29:00,
2013-06-28 04:30:00,63.5,55.4,30.05,NE,39,0.0,0.0,75,0.00,BKN,,0.00,0.0,WeatherDisplay:10.37,2013-06-28 02:30:00,
2013-06-28 04:32:00,63.5,55.4,30.05,NE,39,0.0,0.0,75,0.00,BKN,,0.00,0.0,WeatherDisplay:10.37,2013-06-28 02:32:00,
2013-06-28 04:34:00,63.5,55.4,30.05,NE,39,0.0,0.0,75,0.00,BKN,,0.00,0.0,WeatherDisplay:10.37,2013-06-28 02:34:00,
2013-06-28 04:35:00,63.5,55.4,30.05,NE,39,0.0,0.0,75,0.00,BKN,,0.00,0.0,WeatherDisplay:10.37,2013-06-28 02:35:00,
2013-06-28 04:38:00,63.5,55.4,30.05,NE,39,0.0,0.0,75,0.00,BKN,,0.00,0.0,WeatherDisplay:10.37,2013-06-28 02:38:00,
2013-06-28 04:41:00,63.4,55.3,30.05,NE,39,0.0,0.0,75,0.00,BKN,,0.00,0.0,WeatherDisplay:10.37,2013-06-28 02:41:00,
2013-06-28 04:43:00,63.4,55.3,30.04,NE,39,0.0,0.0,75,0.00,BKN,,0.00,0.0,WeatherDisplay:10.37,2013-06-28 02:43:00,
2013-06-28 04:47:00,63.4,55.3,30.04,NE,39,0.0,0.0,75,0.00,BKN,,0.00,0.0,WeatherDisplay:10.37,2013-06-28 02:47:00,
2013-06-28 04:50:00,63.3,55.2,30.04,NE,39,0.0,0.0,75,0.00,BKN,,0.00,0.0,WeatherDisplay:10.37,2013-06-28 02:50:00,
2013-06-28 04:52:00,63.3,55.2,30.04,NE,39,0.0,0.0,75,0.00,BKN,,0.00,0.0,WeatherDisplay:10.37,2013-06-28 02:52:00,
2013-06-28 04:55:00,63.3,55.2,30.04,NE,39,0.0,0.0,75,0.00,BKN,,0.00,0.0,WeatherDisplay:10.37,2013-06-28 02:55:00,
2013-06-28 04:57:00,63.3,55.2,30.04,NE,39,0.0,0.0,75,0.00,BKN,,0.00,0.0,WeatherDisplay:10.37,2013-06-28 02:57:00,
2013-06-28 04:58:00,63.2,55.1,30.05,NE,39,0.0,0.0,75,0.00,BKN,,0.00,0.0,WeatherDisplay:10.37,2013-06-28 02:58:00,
2013-06-28 05:00:00,63.2,55.1,30.04,NE,39,0.0,0.0,75,0.00,BKN,,0.00,0.0,WeatherDisplay:10.37,2013-06-28 03:00:00,
2013-06-28 05:02:00,63.2,55.1,30.05,NE,39,0.0,0.0,75,0.00,BKN,,0.00,0.0,WeatherDisplay:10.37,2013-06-28 03:02:00,
2013-06-28 05:04:00,63.2,55.1,30.05,NE,39,0.0,0.0,75,0.00,BKN,,0.00,0.0,WeatherDisplay:10.37,2013-06-28 03:04:00,
2013-06-28 05:06:00,63.1,55.4,30.04,NE,39,0.0,0.0,76,0.00,BKN,,0.00,0.0,WeatherDisplay:10.37,2013-06-28 03:06:00,
2013-06-28 05:07:00,63.1,55.4,30.04,NE,39,0.0,0.0,76,0.00,BKN,,0.00,0.0,WeatherDisplay:10.37,2013-06-28 03:07:00,
2013-06-28 05:09:00,63.1,55.4,30.05,NE,39,0.0,0.0,76,0.00,BKN,,0.00,0.0,WeatherDisplay:10.37,2013-06-28 03:09:00,
2013-06-28 05:12:00,63.1,55.4,30.05,NE,39,0.0,0.0,76,0.00,BKN,,0.00,0.0,WeatherDisplay:10.37,2013-06-28 03:12:00,
2013-06-28 05:13:00,63.1,55.4,30.05,NE,39,0.0,0.0,76,0.00,BKN,,0.00,0.0,WeatherDisplay:10.37,2013-06-28 03:13:00,
2013-06-28 05:14:00,63.1,55.4,30.04,NE,39,0.0,0.0,76,0.00,BKN,,0.00,0.0,WeatherDisplay:10.37,2013-06-28 03:14:00,
2013-06-28 05:15:00,63.2,55.5,30.04,NE,39,0.0,0.0,76,0.00,BKN,,0.00,0.0,WeatherDisplay:10.37,2013-06-28 03:15:00,
2013-06-28 05:18:00,63.2,55.5,30.04,NE,39,0.0,0.1,76,0.00,BKN,,0.00,0.0,WeatherDisplay:10.37,2013-06-28 03:18:00,
2013-06-28 05:19:00,63.3,55.6,30.05,NE,39,0.0,0.0,76,0.00,BKN,,0.00,0.0,WeatherDisplay:10.37,2013-06-28 03:19:00,
2013-06-28 05:20:00,63.3,55.6,30.04,NE,39,0.0,0.0,76,0.00,BKN,,0.00,0.0,WeatherDisplay:10.37,2013-06-28 03:20:00,
2013-06-28 05:23:00,63.3,55.6,30.04,NE,40,0.0,0.0,76,0.00,BKN,,0.00,0.0,WeatherDisplay:10.37,2013-06-28 03:23:00,
2013-06-28 05:24:00,63.3,55.6,30.04,NE,40,0.0,0.0,76,0.00,BKN,,0.00,0.0,WeatherDisplay:10.37,2013-06-28 03:24:00,
2013-06-28 05:25:00,63.3,55.6,30.04,NE,40,0.0,0.0,76,0.00,BKN,,0.00,0.0,WeatherDisplay:10.37,2013-06-28 03:25:00,
2013-06-28 05:26:00,63.3,55.6,30.04,NE,40,0.0,0.0,76,0.00,BKN,,0.00,0.0,WeatherDisplay:10.37,2013-06-28 03:26:00,
2013-06-28 05:28:00,63.3,55.6,30.04,NE,40,0.0,0.0,76,0.00,BKN,,0.00,0.0,WeatherDisplay:10.37,2013-06-28 03:28:00,
2013-06-28 05:29:00,63.3,55.6,30.04,NE,40,0.0,0.0,76,0.00,BKN,,0.00,0.0,WeatherDisplay:10.37,2013-06-28 03:29:00,
2013-06-28 05:30:00,63.3,55.6,30.04,NE,40,0.0,0.0,76,0.00,BKN,,0.00,0.0,WeatherDisplay:10.37,2013-06-28 03:30:00,
2013-06-28 05:32:00,63.3,55.6,30.04,NE,56,0.0,0.0,76,0.00,BKN,,0.00,0.0,WeatherDisplay:10.37,2013-06-28 03:32:00,
2013-06-28 05:34:00,63.3,55.6,30.04,NE,56,1.1,1.1,76,0.00,BKN,,0.00,0.0,WeatherDisplay:10.37,2013-06-28 03:34:00,
2013-06-28 05:35:00,63.3,55.6,30.04,NE,55,0.0,0.0,76,0.00,BKN,,0.00,0.0,WeatherDisplay:10.37,2013-06-28 03:35:00,
2013-06-28 05:38:00,63.3,55.6,30.04,ENE,57,0.0,0.0,76,0.00,BKN,,0.00,0.0,WeatherDisplay:10.37,2013-06-28 03:38:00,
2013-06-28 05:39:00,63.3,55.6,30.04,ENE,76,1.1,1.1,76,0.00,BKN,,0.00,5.0,WeatherDisplay:10.37,2013-06-28 03:39:00,
2013-06-28 05:40:00,63.3,55.6,30.04,East,79,1.1,1.1,76,0.00,BKN,,0.00,5.0,WeatherDisplay:10.37,2013-06-28 03:40:00,
2013-06-28 05:41:00,63.3,55.6,30.04,East,79,0.0,0.0,76,0.00,BKN,,0.00,5.0,WeatherDisplay:10.37,2013-06-28 03:41:00,
2013-06-28 05:43:00,63.3,55.6,30.04,East,79,0.0,0.0,76,0.00,BKN,,0.00,7.0,WeatherDisplay:10.37,2013-06-28 03:43:00,
2013-06-28 05:45:00,63.3,55.6,30.04,East,79,0.0,0.0,76,0.00,FEW,,0.00,9.0,WeatherDisplay:10.37,2013-06-28 03:45:00,
2013-06-28 05:46:00,63.3,56.0,30.04,East,79,0.0,0.0,77,0.00,FEW,,0.00,9.0,WeatherDisplay:10.37,2013-06-28 03:46:00,
2013-06-28 05:50:00,63.2,55.9,30.04,East,79,0.0,0.0,77,0.00,FEW,,0.00,12.0,WeatherDisplay:10.37,2013-06-28 03:50:00,
2013-06-28 05:51:00,63.2,55.9,30.04,East,79,0.0,0.0,77,0.00,FEW,,0.00,12.0,WeatherDisplay:10.37,2013-06-28 03:51:00,
2013-06-28 05:52:00,63.2,55.9,30.04,ENE,72,3.0,3.0,77,0.00,FEW,,0.00,12.0,WeatherDisplay:10.37,2013-06-28 03:52:00,
2013-06-28 05:55:00,63.2,55.9,30.04,ENE,66,4.6,4.6,77,0.00,FEW,,0.00,16.0,WeatherDisplay:10.37,2013-06-28 03:55:00,
2013-06-28 05:56:00,63.2,55.9,30.04,ENE,67,3.5,3.5,77,0.00,FEW,,0.00,16.0,WeatherDisplay:10.37,2013-06-28 03:56:00,
2013-06-28 05:58:00,63.1,55.8,30.04,ENE,70,2.3,2.3,77,0.00,FEW,,0.00,19.0,WeatherDisplay:10.37,2013-06-28 03:58:00,
2013-06-28 06:01:00,63.1,55.8,30.04,ENE,76,3.5,3.5,77,0.00,FEW,,0.00,19.0,WeatherDisplay:10.37,2013-06-28 04:01:00,
2013-06-28 06:06:00,63.1,55.8,30.03,NE,56,3.5,3.5,77,0.00,FEW,,0.00,30.0,WeatherDisplay:10.37,2013-06-28 04:06:00,
2013-06-28 06:11:00,63.1,55.8,30.04,ENE,74,4.6,4.6,77,0.00,FEW,,0.00,40.0,WeatherDisplay:10.37,2013-06-28 04:11:00,
2013-06-28 06:12:00,63.2,55.9,30.03,NE,55,4.6,4.6,77,0.00,FEW,,0.00,40.0,WeatherDisplay:10.37,2013-06-28 04:12:00,
2013-06-28 06:16:00,63.3,56.0,30.03,ENE,63,4.6,4.6,77,0.00,FEW,,0.00,51.0,WeatherDisplay:10.37,2013-06-28 04:16:00,
2013-06-28 06:17:00,63.2,55.9,30.03,East,89,3.5,3.5,77,0.00,FEW,,0.00,53.0,WeatherDisplay:10.37,2013-06-28 04:17:00,
2013-06-28 06:21:00,63.3,56.0,30.03,NE,39,2.3,2.3,77,0.00,FEW,,0.00,63.0,WeatherDisplay:10.37,2013-06-28 04:21:00,
2013-06-28 06:22:00,63.4,56.1,30.03,ENE,68,0.0,0.0,77,0.00,FEW,,0.00,65.0,WeatherDisplay:10.37,2013-06-28 04:22:00,
2013-06-28 06:26:00,63.5,56.2,30.04,NNE,33,3.5,3.5,77,0.00,FEW,,0.00,77.0,WeatherDisplay:10.37,2013-06-28 04:26:00,
2013-06-28 06:27:00,63.5,56.2,30.04,ENE,59,3.5,3.5,77,0.00,FEW,,0.00,77.0,WeatherDisplay:10.37,2013-06-28 04:27:00,
2013-06-28 06:28:00,63.5,56.2,30.04,ENE,66,3.5,3.5,77,0.00,CLR,,0.00,83.0,WeatherDisplay:10.37,2013-06-28 04:28:00,
2013-06-28 06:32:00,63.7,56.4,30.04,ENE,61,0.0,0.0,77,0.00,CLR,,0.00,91.0,WeatherDisplay:10.37,2013-06-28 04:32:00,
2013-06-28 06:33:00,63.7,56.4,30.04,ENE,61,0.0,0.0,77,0.00,CLR,,0.00,97.0,WeatherDisplay:10.37,2013-06-28 04:33:00,
2013-06-28 06:37:00,63.9,56.5,30.04,ENE,62,0.0,0.0,77,0.00,CLR,,0.00,98.0,WeatherDisplay:10.37,2013-06-28 04:37:00,
2013-06-28 06:38:00,63.9,56.5,30.04,ENE,64,0.0,0.0,77,0.00,CLR,,0.00,111.0,WeatherDisplay:10.37,2013-06-28 04:38:00,
2013-06-28 06:42:00,64.1,56.7,30.04,East,100,0.0,0.0,77,0.00,CLR,,0.00,120.0,WeatherDisplay:10.37,2013-06-28 04:42:00,
2013-06-28 06:44:00,64.3,56.6,30.04,East,100,0.0,0.0,76,0.00,CLR,,0.00,123.0,WeatherDisplay:10.37,2013-06-28 04:44:00,
2013-06-28 06:47:00,64.4,56.7,30.04,ESE,110,1.1,1.1,76,0.00,CLR,,0.00,132.0,WeatherDisplay:10.37,2013-06-28 04:47:00,
2013-06-28 06:48:00,64.5,56.8,30.04,ESE,116,3.5,3.5,76,0.00,CLR,,0.00,135.0,WeatherDisplay:10.37,2013-06-28 04:48:00,
2013-06-28 06:49:00,64.6,56.9,30.05,ESE,117,3.0,3.0,76,0.00,CLR,,0.00,139.0,WeatherDisplay:10.37,2013-06-28 04:49:00,
2013-06-28 06:52:00,64.8,56.7,30.05,ESE,112,2.3,0.0,75,0.00,CLR,,0.00,146.0,WeatherDisplay:10.37,2013-06-28 04:52:00,
2013-06-28 06:53:00,64.9,56.8,30.04,East,101,2.3,0.0,75,0.00,CLR,,0.00,148.0,WeatherDisplay:10.37,2013-06-28 04:53:00,
2013-06-28 06:54:00,65.0,56.9,30.04,East,84,3.5,3.5,75,0.00,CLR,,0.00,148.0,WeatherDisplay:10.37,2013-06-28 04:54:00,
2013-06-28 06:57:00,65.1,57.0,30.04,ESE,111,3.5,3.5,75,0.00,CLR,,0.00,146.0,WeatherDisplay:10.37,2013-06-28 04:57:00,
2013-06-28 06:58:00,65.2,57.1,30.04,ESE,111,0.0,0.0,75,0.00,CLR,,0.00,146.0,WeatherDisplay:10.37,2013-06-28 04:58:00,
2013-06-28 07:00:00,65.3,57.2,30.05,ESE,108,1.1,0.0,75,0.00,CLR,,0.00,171.0,WeatherDisplay:10.37,2013-06-28 05:00:00,
2013-06-28 07:02:00,65.5,57.4,30.05,ESE,108,0.0,0.0,75,0.00,CLR,,0.00,209.0,WeatherDisplay:10.37,2013-06-28 05:02:00,
2013-06-28 07:03:00,65.5,57.0,30.05,ESE,108,0.0,0.0,74,0.00,CLR,,0.00,183.0,WeatherDisplay:10.37,2013-06-28 05:03:00,
2013-06-28 07:05:00,65.6,57.1,30.05,ENE,74,0.0,0.0,74,0.00,CLR,,0.00,84.0,WeatherDisplay:10.37,2013-06-28 05:05:00,
2013-06-28 07:07:00,65.7,57.2,30.05,ENE,77,0.0,0.0,74,0.00,FEW,,0.00,74.0,WeatherDisplay:10.37,2013-06-28 05:07:00,
2013-06-28 07:08:00,65.7,57.2,30.05,ENE,77,0.0,0.0,74,0.00,FEW,,0.00,74.0,WeatherDisplay:10.37,2013-06-28 05:08:00,
2013-06-28 07:10:00,65.8,57.3,30.05,ENE,77,0.0,0.0,74,0.00,FEW,,0.00,65.0,WeatherDisplay:10.37,2013-06-28 05:10:00,
2013-06-28 07:12:00,65.8,56.9,30.05,ENE,77,0.0,0.0,73,0.00,FEW,,0.00,65.0,WeatherDisplay:10.37,2013-06-28 05:12:00,
2013-06-28 07:13:00,65.8,56.9,30.05,ENE,77,0.0,0.0,73,0.00,FEW,,0.00,65.0,WeatherDisplay:10.37,2013-06-28 05:13:00,
2013-06-28 07:14:00,65.8,56.9,30.05,ENE,77,0.0,0.0,73,0.00,FEW,,0.00,65.0,WeatherDisplay:10.37,2013-06-28 05:14:00,
2013-06-28 07:15:00,65.8,56.9,30.05,ENE,77,0.0,0.0,73,0.00,FEW,,0.00,69.0,WeatherDisplay:10.37,2013-06-28 05:15:00,
2013-06-28 07:17:00,65.8,56.9,30.05,ENE,77,0.0,0.0,73,0.00,FEW,,0.00,70.0,WeatherDisplay:10.37,2013-06-28 05:17:00,
2013-06-28 07:18:00,65.9,57.0,30.05,ENE,77,0.0,0.0,73,0.00,FEW,,0.00,70.0,WeatherDisplay:10.37,2013-06-28 05:18:00,
2013-06-28 07:19:00,65.9,57.0,30.05,ENE,77,0.0,0.0,73,0.00,FEW,,0.00,70.0,WeatherDisplay:10.37,2013-06-28 05:19:00,
2013-06-28 07:20:00,65.9,57.0,30.05,ENE,77,0.0,0.0,73,0.00,FEW,,0.00,70.0,WeatherDisplay:10.37,2013-06-28 05:20:00,
2013-06-28 07:23:00,65.9,57.0,30.05,ENE,77,0.0,0.0,73,0.00,FEW,,0.00,91.0,WeatherDisplay:10.37,2013-06-28 05:23:00,
2013-06-28 07:24:00,65.9,57.0,30.05,ENE,77,0.0,0.0,73,0.00,FEW,,0.00,156.0,WeatherDisplay:10.37,2013-06-28 05:24:00,
2013-06-28 07:25:00,65.9,57.0,30.05,ENE,77,0.0,0.0,73,0.00,FEW,,0.00,120.0,WeatherDisplay:10.37,2013-06-28 05:25:00,
2013-06-28 07:28:00,65.9,56.6,30.05,ENE,77,0.0,0.0,72,0.00,FEW,,0.00,128.0,WeatherDisplay:10.37,2013-06-28 05:28:00,
2013-06-28 07:29:00,66.0,57.1,30.05,East,81,0.0,0.0,73,0.00,FEW,,0.00,315.0,WeatherDisplay:10.37,2013-06-28 05:29:00,
2013-06-28 07:30:00,66.1,57.2,30.05,East,81,0.0,0.0,73,0.00,FEW,,0.00,315.0,WeatherDisplay:10.37,2013-06-28 05:30:00,
2013-06-28 07:33:00,66.2,56.9,30.04,East,81,0.0,0.0,72,0.00,FEW,,0.00,265.0,WeatherDisplay:10.37,2013-06-28 05:33:00,
2013-06-28 07:34:00,66.3,57.0,30.05,East,81,0.0,0.0,72,0.00,FEW,,0.00,264.0,WeatherDisplay:10.37,2013-06-28 05:34:00,
2013-06-28 07:36:00,66.4,57.1,30.05,East,81,0.0,0.0,72,0.00,CLR,,0.00,111.0,WeatherDisplay:10.37,2013-06-28 05:36:00,
2013-06-28 07:38:00,66.5,57.2,30.05,East,82,2.3,0.0,72,0.00,CLR,,0.00,120.0,WeatherDisplay:10.37,2013-06-28 05:38:00,
2013-06-28 07:39:00,66.6,57.3,30.05,East,82,0.0,0.0,72,0.00,CLR,,0.00,125.0,WeatherDisplay:10.37,2013-06-28 05:39:00,
2013-06-28 07:40:00,66.6,57.3,30.05,East,82,0.0,0.0,72,0.00,CLR,,0.00,125.0,WeatherDisplay:10.37,2013-06-28 05:40:00,
2013-06-28 07:41:00,66.7,57.4,30.05,East,82,0.0,0.0,72,0.00,FEW,,0.00,118.0,WeatherDisplay:10.37,2013-06-28 05:41:00,
2013-06-28 07:43:00,66.8,57.1,30.05,East,82,0.0,0.0,71,0.00,FEW,,0.00,285.0,WeatherDisplay:10.37,2013-06-28 05:43:00,
2013-06-28 07:45:00,66.9,57.2,30.05,East,82,0.0,0.0,71,0.00,FEW,,0.00,244.0,WeatherDisplay:10.37,2013-06-28 05:45:00,
2013-06-28 07:46:00,67.0,57.3,30.05,ENE,71,1.1,1.1,71,0.00,FEW,,0.00,90.0,WeatherDisplay:10.37,2013-06-28 05:46:00,
2013-06-28 07:48:00,67.1,57.4,30.05,ENE,76,0.0,0.0,71,0.00,FEW,,0.00,141.0,WeatherDisplay:10.37,2013-06-28 05:48:00,
2013-06-28 07:50:00,67.2,57.5,30.04,East,85,0.0,0.0,71,0.00,FEW,,0.00,320.0,WeatherDisplay:10.37,2013-06-28 05:50:00,
2013-06-28 07:52:00,67.3,57.6,30.04,East,90,0.0,0.0,71,0.00,FEW,,0.00,316.0,WeatherDisplay:10.37,2013-06-28 05:52:00,
2013-06-28 07:53:00,67.5,57.8,30.04,ENE,68,1.0,0.0,71,0.00,FEW,,0.00,287.0,WeatherDisplay:10.37,2013-06-28 05:53:00,
2013-06-28 07:54:00,67.5,57.8,30.04,ENE,68,1.1,1.1,71,0.00,FEW,,0.00,287.0,WeatherDisplay:10.37,2013-06-28 05:54:00,
2013-06-28 07:55:00,67.6,57.9,30.04,East,89,3.5,3.5,71,0.00,FEW,,0.00,276.0,WeatherDisplay:10.37,2013-06-28 05:55:00,
2013-06-28 07:56:00,67.6,57.5,30.04,East,86,3.5,3.5,70,0.00,FEW,,0.00,278.0,WeatherDisplay:10.37,2013-06-28 05:56:00,
2013-06-28 07:57:00,67.6,57.5,30.04,ENE,77,3.5,3.5,70,0.00,FEW,,0.00,278.0,WeatherDisplay:10.37,2013-06-28 05:57:00,
2013-06-28 07:59:00,67.6,57.5,30.04,ENE,59,3.5,3.5,70,0.00,CLR,,0.00,276.0,WeatherDisplay:10.37,2013-06-28 05:59:00,
2013-06-28 08:00:00,67.7,57.6,30.04,ENE,67,3.5,3.5,70,0.00,CLR,,0.00,264.0,WeatherDisplay:10.37,2013-06-28 06:00:00,
2013-06-28 08:01:00,67.7,57.6,30.04,ENE,67,2.3,2.3,70,0.00,CLR,,0.00,165.0,WeatherDisplay:10.37,2013-06-28 06:01:00,
2013-06-28 08:02:00,67.8,57.7,30.04,ENE,61,4.0,4.0,70,0.00,CLR,,0.00,165.0,WeatherDisplay:10.37,2013-06-28 06:02:00,
2013-06-28 08:04:00,67.8,57.3,30.04,ENE,58,3.5,3.5,69,0.00,FEW,,0.00,165.0,WeatherDisplay:10.37,2013-06-28 06:04:00,
2013-06-28 08:05:00,67.8,57.3,30.04,ENE,68,3.5,3.5,69,0.00,FEW,,0.00,60.0,WeatherDisplay:10.37,2013-06-28 06:05:00,
2013-06-28 08:06:00,67.8,57.3,30.04,ENE,72,3.5,3.5,69,0.00,FEW,,0.00,60.0,WeatherDisplay:10.37,2013-06-28 06:06:00,
2013-06-28 08:07:00,67.9,57.4,30.04,NNE,24,3.5,3.5,69,0.00,FEW,,0.00,62.0,WeatherDisplay:10.37,2013-06-28 06:07:00,
2013-06-28 08:09:00,67.9,57.4,30.04,ENE,57,3.5,3.5,69,0.00,FEW,,0.00,62.0,WeatherDisplay:10.37,2013-06-28 06:09:00,
2013-06-28 08:10:00,67.9,57.4,30.04,NE,41,3.5,3.5,69,0.00,FEW,,0.00,63.0,WeatherDisplay:10.37,2013-06-28 06:10:00,
2013-06-28 08:11:00,68.0,57.4,30.04,NE,39,3.5,0.0,69,0.00,FEW,,0.00,63.0,WeatherDisplay:10.37,2013-06-28 06:11:00,
2013-06-28 08:12:00,68.0,57.4,30.04,NE,49,0.0,0.0,69,0.00,FEW,,0.00,67.0,WeatherDisplay:10.37,2013-06-28 06:12:00,
2013-06-28 08:14:00,68.2,57.6,30.04,NE,45,3.0,3.0,69,0.00,SCT,,0.00,69.0,WeatherDisplay:10.37,2013-06-28 06:14:00,
2013-06-28 08:16:00,68.2,57.6,30.04,ENE,76,7.0,7.0,69,0.00,SCT,,0.00,67.0,WeatherDisplay:10.37,2013-06-28 06:16:00,
2013-06-28 08:18:00,68.3,57.7,30.04,SE,138,3.5,3.5,69,0.00,SCT,,0.00,69.0,WeatherDisplay:10.37,2013-06-28 06:18:00,
2013-06-28 08:19:00,68.4,57.8,30.04,ESE,113,2.3,2.3,69,0.00,SCT,,0.00,67.0,WeatherDisplay:10.37,2013-06-28 06:19:00,
2013-06-28 08:21:00,68.5,57.5,30.04,SE,130,3.5,3.5,68,0.00,SCT,,0.00,67.0,WeatherDisplay:10.37,2013-06-28 06:21:00,
2013-06-28 08:23:00,68.7,58.1,30.04,SE,127,1.1,1.1,69,0.00,SCT,,0.00,67.0,WeatherDisplay:10.37,2013-06-28 06:23:00,
2013-06-28 08:24:00,68.8,57.8,30.04,SE,142,2.0,2.0,68,0.00,SCT,,0.00,67.0,WeatherDisplay:10.37,2013-06-28 06:24:00,
2013-06-28 08:25:00,68.9,57.9,30.04,SE,142,3.5,3.5,68,0.00,SCT,,0.00,67.0,WeatherDisplay:10.37,2013-06-28 06:25:00,
2013-06-28 08:26:00,68.9,57.9,30.04,South,175,3.5,3.5,68,0.00,SCT,,0.00,67.0,WeatherDisplay:10.37,2013-06-28 06:26:00,
2013-06-28 08:27:00,69.1,58.1,30.04,South,180,2.3,0.0,68,0.00,SCT,,0.00,69.0,WeatherDisplay:10.37,2013-06-28 06:27:00,
2013-06-28 08:28:00,69.1,58.1,30.04,South,181,1.1,0.0,68,0.00,SCT,,0.00,69.0,WeatherDisplay:10.37,2013-06-28 06:28:00,
2013-06-28 08:29:00,69.2,58.2,30.04,South,181,0.0,0.0,68,0.00,SCT,,0.00,70.0,WeatherDisplay:10.37,2013-06-28 06:29:00,
2013-06-28 08:30:00,69.3,58.3,30.04,South,181,0.0,0.0,68,0.00,SCT,,0.00,72.0,WeatherDisplay:10.37,2013-06-28 06:30:00,
2013-06-28 08:31:00,69.3,57.9,30.04,South,181,0.0,0.0,67,0.00,SCT,,0.00,76.0,WeatherDisplay:10.37,2013-06-28 06:31:00,
2013-06-28 08:32:00,69.5,58.5,30.04,ESE,119,4.0,4.0,68,0.00,SCT,,0.00,83.0,WeatherDisplay:10.37,2013-06-28 06:32:00,
2013-06-28 08:33:00,69.6,58.2,30.04,SE,126,4.6,4.6,67,0.00,SCT,,0.00,83.0,WeatherDisplay:10.37,2013-06-28 06:33:00,
2013-06-28 08:34:00,69.6,58.2,30.04,SE,126,5.0,5.0,67,0.00,SCT,,0.00,84.0,WeatherDisplay:10.37,2013-06-28 06:34:00,
2013-06-28 08:35:00,69.7,58.3,30.04,SE,132,4.6,4.6,67,0.00,SCT,,0.00,84.0,WeatherDisplay:10.37,2013-06-28 06:35:00,
2013-06-28 08:36:00,69.7,58.3,30.04,East,89,3.5,3.5,67,0.00,SCT,,0.00,84.0,WeatherDisplay:10.37,2013-06-28 06:36:00,
2013-06-28 08:37:00,69.8,58.3,30.04,SE,126,5.0,5.9,67,0.00,SCT,,0.00,76.0,WeatherDisplay:10.37,2013-06-28 06:37:00,
2013-06-28 08:38:00,69.8,58.3,30.04,SE,138,8.1,8.1,67,0.00,SCT,,0.00,76.0,WeatherDisplay:10.37,2013-06-28 06:38:00,
2013-06-28 08:39:00,69.8,58.3,30.03,ESE,116,6.9,6.9,67,0.00,SCT,,0.00,74.0,WeatherDisplay:10.37,2013-06-28 06:39:00,
2013-06-28 08:40:00,69.8,58.3,30.04,East,96,5.8,5.8,67,0.00,SCT,,0.00,74.0,WeatherDisplay:10.37,2013-06-28 06:40:00,
2013-06-28 08:41:00,69.9,58.4,30.04,ENE,70,3.5,3.5,67,0.00,SCT,,0.00,74.0,WeatherDisplay:10.37,2013-06-28 06:41:00,
2013-06-28 08:42:00,70.0,58.5,30.04,ENE,67,3.5,3.5,67,0.00,SCT,,0.00,74.0,WeatherDisplay:10.37,2013-06-28 06:42:00,
2013-06-28 08:43:00,70.0,58.5,30.04,ENE,67,3.5,3.5,67,0.00,SCT,,0.00,74.0,WeatherDisplay:10.37,2013-06-28 06:43:00,
2013-06-28 08:44:00,70.1,58.6,30.04,ESE,111,2.0,2.0,67,0.00,SCT,,0.00,74.0,WeatherDisplay:10.37,2013-06-28 06:44:00,
2013-06-28 08:45:00,70.2,58.7,30.03,ESE,117,3.5,3.5,67,0.00,SCT,,0.00,74.0,WeatherDisplay:10.37,2013-06-28 06:45:00,
2013-06-28 08:46:00,70.2,58.7,30.03,ESE,117,2.3,2.3,67,0.00,SCT,,0.00,74.0,WeatherDisplay:10.37,2013-06-28 06:46:00,
2013-06-28 08:48:00,70.4,58.9,30.04,SE,134,6.0,6.0,67,0.00,SCT,,0.00,74.0,WeatherDisplay:10.37,2013-06-28 06:48:00,
2013-06-28 08:49:00,70.6,59.1,30.03,ESE,108,5.8,5.8,67,0.00,SCT,,0.00,79.0,WeatherDisplay:10.37,2013-06-28 06:49:00,
2013-06-28 08:51:00,70.7,59.2,30.03,East,91,3.5,3.5,67,0.00,SCT,,0.00,84.0,WeatherDisplay:10.37,2013-06-28 06:51:00,
2013-06-28 08:52:00,70.7,59.2,30.03,ESE,108,3.5,3.5,67,0.00,SCT,,0.00,84.0,WeatherDisplay:10.37,2013-06-28 06:52:00,
2013-06-28 08:53:00,70.8,59.3,30.03,ESE,107,0.0,0.0,67,0.00,SCT,,0.00,113.0,WeatherDisplay:10.37,2013-06-28 06:53:00,
2013-06-28 08:55:00,71.0,59.5,30.03,East,82,0.0,0.0,67,0.00,SCT,,0.00,125.0,WeatherDisplay:10.37,2013-06-28 06:55:00,
2013-06-28 08:56:00,71.1,59.2,30.04,East,87,5.8,5.8,66,0.00,SCT,,0.00,134.0,WeatherDisplay:10.37,2013-06-28 06:56:00,
2013-06-28 08:57:00,71.1,59.2,30.04,ESE,116,9.2,9.2,66,0.00,SCT,,0.00,134.0,WeatherDisplay:10.37,2013-06-28 06:57:00,
2013-06-28 08:58:00,71.1,59.2,30.04,East,101,9.2,9.2,66,0.00,SCT,,0.00,139.0,WeatherDisplay:10.37,2013-06-28 06:58:00,
2013-06-28 08:59:00,71.0,59.1,30.04,ESE,112,5.8,5.8,66,0.00,SCT,,0.00,141.0,WeatherDisplay:10.37,2013-06-28 06:59:00,
2013-06-28 09:00:00,71.1,59.2,30.04,SE,127,4.0,4.0,66,0.00,SCT,,0.00,142.0,WeatherDisplay:10.37,2013-06-28 07:00:00,
2013-06-28 09:01:00,71.1,59.2,30.04,SE,133,4.6,4.6,66,0.00,SCT,,0.00,137.0,WeatherDisplay:10.37,2013-06-28 07:01:00,
2013-06-28 09:02:00,71.1,59.2,30.04,East,91,4.6,4.6,66,0.00,SCT,,0.00,137.0,WeatherDisplay:10.37,2013-06-28 07:02:00,
2013-06-28 09:03:00,71.1,59.2,30.04,SE,137,8.1,8.1,66,0.00,SCT,,0.00,142.0,WeatherDisplay:10.37,2013-06-28 07:03:00,
2013-06-28 09:04:00,71.1,59.2,30.04,ESE,121,6.9,6.9,66,0.00,FEW,,0.00,141.0,WeatherDisplay:10.37,2013-06-28 07:04:00,
2013-06-28 09:05:00,71.0,59.1,30.04,SE,132,5.0,5.0,66,0.00,FEW,,0.00,144.0,WeatherDisplay:10.37,2013-06-28 07:05:00,
2013-06-28 09:06:00,71.0,59.1,30.04,SE,128,6.9,6.9,66,0.00,FEW,,0.00,146.0,WeatherDisplay:10.37,2013-06-28 07:06:00,
2013-06-28 09:07:00,71.0,59.1,30.04,SE,126,4.6,4.6,66,0.00,FEW,,0.00,148.0,WeatherDisplay:10.37,2013-06-28 07:07:00,
2013-06-28 09:08:00,70.9,59.0,30.04,East,86,3.5,3.5,66,0.00,FEW,,0.00,148.0,WeatherDisplay:10.37,2013-06-28 07:08:00,
2013-06-28 09:09:00,71.0,59.1,30.04,ESE,116,5.0,5.0,66,0.00,FEW,,0.00,594.0,WeatherDisplay:10.37,2013-06-28 07:09:00,
2013-06-28 09:10:00,71.0,59.1,30.04,SE,126,8.1,8.1,66,0.00,FEW,,0.00,594.0,WeatherDisplay:10.37,2013-06-28 07:10:00,
2013-06-28 09:11:00,71.1,59.2,30.04,SE,128,5.0,5.0,66,0.00,FEW,,0.00,520.0,WeatherDisplay:10.37,2013-06-28 07:11:00,
2013-06-28 09:12:00,71.1,59.2,30.04,ESE,119,4.6,4.6,66,0.00,FEW,,0.00,520.0,WeatherDisplay:10.37,2013-06-28 07:12:00,
2013-06-28 09:14:00,71.2,59.3,30.04,East,88,6.9,6.9,66,0.00,FEW,,0.00,520.0,WeatherDisplay:10.37,2013-06-28 07:14:00,
2013-06-28 09:15:00,71.2,59.3,30.04,East,94,8.1,8.1,66,0.00,FEW,,0.00,156.0,WeatherDisplay:10.37,2013-06-28 07:15:00,
2013-06-28 09:17:00,71.3,59.4,30.04,ESE,121,4.6,4.6,66,0.00,FEW,,0.00,156.0,WeatherDisplay:10.37,2013-06-28 07:17:00,
2013-06-28 09:19:00,71.5,59.5,30.04,SSW,205,4.0,4.0,66,0.00,FEW,,0.00,137.0,WeatherDisplay:10.37,2013-06-28 07:19:00,
2013-06-28 09:21:00,71.6,59.2,30.04,SW,215,8.1,8.1,65,0.00,FEW,,0.00,206.0,WeatherDisplay:10.37,2013-06-28 07:21:00,
2013-06-28 09:22:00,71.6,59.2,30.04,WSW,252,8.1,8.1,65,0.00,FEW,,0.00,148.0,WeatherDisplay:10.37,2013-06-28 07:22:00,
2013-06-28 09:23:00,71.6,59.2,30.04,West,260,6.9,6.9,65,0.00,FEW,,0.00,162.0,WeatherDisplay:10.37,2013-06-28 07:23:00,
2013-06-28 09:24:00,71.6,59.2,30.04,SW,223,6.9,6.9,65,0.00,FEW,,0.00,162.0,WeatherDisplay:10.37,2013-06-28 07:24:00,
2013-06-28 09:25:00,71.6,59.2,30.04,ESE,117,4.6,4.6,65,0.00,FEW,,0.00,178.0,WeatherDisplay:10.37,2013-06-28 07:25:00,
2013-06-28 09:26:00,71.6,59.2,30.04,ESE,123,5.8,5.8,65,0.00,FEW,,0.00,188.0,WeatherDisplay:10.37,2013-06-28 07:26:00,
2013-06-28 09:27:00,71.6,59.2,30.04,SSE,167,4.6,4.6,65,0.00,FEW,,0.00,199.0,WeatherDisplay:10.37,2013-06-28 07:27:00,
2013-06-28 09:28:00,71.6,59.2,30.04,SSE,167,9.0,9.0,65,0.00,FEW,,0.00,199.0,WeatherDisplay:10.37,2013-06-28 07:28:00,
2013-06-28 09:29:00,71.6,59.2,30.04,South,174,10.4,10.4,65,0.00,FEW,,0.00,199.0,WeatherDisplay:10.37,2013-06-28 07:29:00,
2013-06-28 09:30:00,71.6,59.2,30.04,SSE,163,5.8,5.8,65,0.00,FEW,,0.00,199.0,WeatherDisplay:10.37,2013-06-28 07:30:00,
2013-06-28 09:31:00,71.6,59.2,30.04,SE,142,4.6,4.6,65,0.00,FEW,,0.00,199.0,WeatherDisplay:10.37,2013-06-28 07:31:00,
2013-06-28 09:32:00,71.6,59.2,30.04,South,188,7.0,7.0,65,0.00,FEW,,0.00,204.0,WeatherDisplay:10.37,2013-06-28 07:32:00,
2013-06-28 09:33:00,71.6,59.2,30.04,SSW,201,8.1,8.1,65,0.00,FEW,,0.00,204.0,WeatherDisplay:10.37,2013-06-28 07:33:00,
2013-06-28 09:34:00,71.6,58.8,30.04,SSE,165,6.9,6.9,64,0.00,FEW,,0.00,204.0,WeatherDisplay:10.37,2013-06-28 07:34:00,
2013-06-28 09:35:00,71.6,58.8,30.04,SW,219,8.1,8.1,64,0.00,FEW,,0.00,204.0,WeatherDisplay:10.37,2013-06-28 07:35:00,
2013-06-28 09:36:00,71.6,59.2,30.04,SW,216,8.1,8.1,65,0.00,FEW,,0.00,178.0,WeatherDisplay:10.37,2013-06-28 07:36:00,
2013-06-28 09:37:00,71.6,59.2,30.04,SW,221,7.0,7.0,65,0.00,FEW,,0.00,169.0,WeatherDisplay:10.37,2013-06-28 07:37:00,
2013-06-28 09:38:00,71.6,58.8,30.04,WSW,240,8.1,8.1,64,0.00,FEW,,0.00,158.0,WeatherDisplay:10.37,2013-06-28 07:38:00,
2013-06-28 09:39:00,71.6,59.2,30.04,SSW,194,7.0,7.0,65,0.00,FEW,,0.00,155.0,WeatherDisplay:10.37,2013-06-28 07:39:00,
2013-06-28 09:40:00,71.5,59.1,30.04,SSE,161,8.1,8.1,65,0.00,FEW,,0.00,158.0,WeatherDisplay:10.37,2013-06-28 07:40:00,
2013-06-28 09:41:00,71.6,59.2,30.04,SSE,160,6.9,6.9,65,0.00,FEW,,0.00,153.0,WeatherDisplay:10.37,2013-06-28 07:41:00,
2013-06-28 09:42:00,71.6,59.2,30.04,SE,143,6.0,6.0,65,0.00,FEW,,0.00,146.0,WeatherDisplay:10.37,2013-06-28 07:42:00,
2013-06-28 09:44:00,71.5,58.7,30.03,SE,146,6.9,6.9,64,0.00,SCT,,0.00,125.0,WeatherDisplay:10.37,2013-06-28 07:44:00,
2013-06-28 09:46:00,71.5,58.7,30.04,SSE,165,2.3,0.0,64,0.00,SCT,,0.00,148.0,WeatherDisplay:10.37,2013-06-28 07:46:00,
2013-06-28 09:47:00,71.5,58.7,30.04,SE,139,2.0,2.0,64,0.00,SCT,,0.00,163.0,WeatherDisplay:10.37,2013-06-28 07:47:00,
2013-06-28 09:49:00,71.6,58.8,30.03,SSE,167,3.5,3.5,64,0.00,SCT,,0.00,163.0,WeatherDisplay:10.37,2013-06-28 07:49:00,
2013-06-28 09:51:00,71.7,58.9,30.04,South,182,3.5,3.5,64,0.00,SCT,,0.00,163.0,WeatherDisplay:10.37,2013-06-28 07:51:00,
2013-06-28 09:52:00,71.8,59.0,30.04,South,181,3.5,3.5,64,0.00,SCT,,0.00,163.0,WeatherDisplay:10.37,2013-06-28 07:52:00,
2013-06-28 09:54:00,72.0,58.7,30.03,ESE,115,3.5,3.5,63,0.00,SCT,,0.00,163.0,WeatherDisplay:10.37,2013-06-28 07:54:00,
2013-06-28 09:56:00,72.3,59.0,30.03,South,184,2.3,0.0,63,0.00,FEW,,0.00,643.0,WeatherDisplay:10.37,2013-06-28 07:56:00,
2013-06-28 09:57:00,72.3,59.0,30.03,South,184,0.0,0.0,63,0.00,FEW,,0.00,643.0,WeatherDisplay:10.37,2013-06-28 07:57:00,
2013-06-28 09:59:00,72.6,59.3,30.03,SE,141,1.0,1.0,63,0.00,FEW,,0.00,578.0,WeatherDisplay:10.37,2013-06-28 07:59:00,
2013-06-28 10:01:00,72.8,59.5,30.03,SE,138,5.0,5.0,63,0.00,FEW,,0.00,578.0,WeatherDisplay:10.37,2013-06-28 08:01:00,
2013-06-28 10:02:00,72.8,59.5,30.03,SE,134,6.0,6.0,63,0.00,FEW,,0.00,578.0,WeatherDisplay:10.37,2013-06-28 08:02:00,
2013-06-28 10:05:00,72.9,57.7,30.03,South,188,8.1,8.1,59,0.00,FEW,,0.00,146.0,WeatherDisplay:10.37,2013-06-28 08:05:00,
2013-06-28 10:07:00,72.9,57.3,30.03,West,267,6.9,6.9,58,0.00,FEW,,0.00,149.0,WeatherDisplay:10.37,2013-06-28 08:07:00,
2013-06-28 10:10:00,73.0,56.9,30.03,West,264,3.5,3.5,57,0.00,FEW,,0.00,160.0,WeatherDisplay:10.37,2013-06-28 08:10:00,
2013-06-28 10:11:00,73.0,56.9,30.03,NNE,23,0.0,0.0,57,0.00,FEW,,0.00,167.0,WeatherDisplay:10.37,2013-06-28 08:11:00,
2013-06-28 10:12:00,73.0,56.9,30.03,NNE,24,0.0,0.0,57,0.00,FEW,,0.00,167.0,WeatherDisplay:10.37,2013-06-28 08:12:00,
2013-06-28 10:13:00,73.1,57.4,30.03,NNE,24,0.0,0.0,58,0.00,FEW,,0.00,167.0,WeatherDisplay:10.37,2013-06-28 08:13:00,
2013-06-28 10:15:00,73.6,57.4,30.03,SE,143,4.6,4.6,57,0.00,SCT,,0.00,167.0,WeatherDisplay:10.37,2013-06-28 08:15:00,
2013-06-28 10:17:00,73.8,57.6,30.03,SSW,197,2.3,2.3,57,0.00,FEW,,0.00,747.0,WeatherDisplay:10.37,2013-06-28 08:17:00,
2013-06-28 10:18:00,74.0,57.8,30.03,SE,132,2.0,2.0,57,0.00,FEW,,0.00,747.0,WeatherDisplay:10.37,2013-06-28 08:18:00,
2013-06-28 10:21:00,74.5,57.8,30.03,SSE,154,4.0,4.0,56,0.00,FEW,,0.00,250.0,WeatherDisplay:10.37,2013-06-28 08:21:00,
2013-06-28 10:22:00,74.6,57.9,30.03,South,180,4.0,4.0,56,0.00,FEW,,0.00,715.0,WeatherDisplay:10.37,2013-06-28 08:22:00,
2013-06-28 10:23:00,74.7,58.0,30.03,South,180,3.5,3.5,56,0.00,FEW,,0.00,715.0,WeatherDisplay:10.37,2013-06-28 08:23:00,
2013-06-28 10:26:00,75.0,58.2,30.03,South,171,6.9,6.9,56,0.00,FEW,,0.00,715.0,WeatherDisplay:10.37,2013-06-28 08:26:00,
2013-06-28 10:28:00,74.8,58.5,30.03,South,180,8.1,8.1,57,0.00,FEW,,0.00,747.0,WeatherDisplay:10.37,2013-06-28 08:28:00,
2013-06-28 10:29:00,74.8,59.0,30.03,WSW,242,3.5,3.5,58,0.00,FEW,,0.00,747.0,WeatherDisplay:10.37,2013-06-28 08:29:00,
2013-06-28 10:31:00,75.0,59.2,30.03,SW,234,7.0,7.0,58,0.00,CLR,,0.00,780.0,WeatherDisplay:10.37,2013-06-28 08:31:00,
2013-06-28 10:33:00,75.0,58.7,30.03,WSW,240,5.0,5.0,57,0.00,CLR,,0.00,780.0,WeatherDisplay:10.37,2013-06-28 08:33:00,
2013-06-28 10:34:00,75.0,58.7,30.03,SW,216,5.8,5.8,57,0.00,CLR,,0.00,780.0,WeatherDisplay:10.37,2013-06-28 08:34:00,
2013-06-28 10:36:00,74.9,58.6,30.03,SSW,213,3.5,3.5,57,0.00,FEW,,0.00,204.0,WeatherDisplay:10.37,2013-06-28 08:36:00,
2013-06-28 10:38:00,74.7,58.9,30.03,WNW,285,3.5,3.5,58,0.00,FEW,,0.00,239.0,WeatherDisplay:10.37,2013-06-28 08:38:00,
2013-06-28 10:39:00,74.7,58.9,30.03,WNW,285,2.3,2.3,58,0.00,FEW,,0.00,239.0,WeatherDisplay:10.37,2013-06-28 08:39:00,
2013-06-28 10:41:00,74.6,58.8,30.03,SW,223,4.0,4.0,58,0.00,FEW,,0.00,239.0,WeatherDisplay:10.37,2013-06-28 08:41:00,
2013-06-28 10:44:00,74.5,59.2,30.03,WSW,244,6.9,6.9,59,0.00,FEW,,0.00,211.0,WeatherDisplay:10.37,2013-06-28 08:44:00,
2013-06-28 10:45:00,74.4,59.1,30.03,WSW,256,5.8,5.8,59,0.00,SCT,,0.00,211.0,WeatherDisplay:10.37,2013-06-28 08:45:00,
2013-06-28 10:47:00,74.3,59.0,30.03,SW,225,3.5,3.5,59,0.00,SCT,,0.00,211.0,WeatherDisplay:10.37,2013-06-28 08:47:00,
2013-06-28 10:49:00,74.2,58.9,30.03,SSE,159,5.8,5.8,59,0.00,SCT,,0.00,181.0,WeatherDisplay:10.37,2013-06-28 08:49:00,
2013-06-28 10:50:00,74.2,58.9,30.03,SSE,163,5.8,5.8,59,0.00,SCT,,0.00,181.0,WeatherDisplay:10.37,2013-06-28 08:50:00,
2013-06-28 10:53:00,74.2,58.5,30.03,SW,221,6.9,6.9,58,0.00,SCT,,0.00,142.0,WeatherDisplay:10.37,2013-06-28 08:53:00,
2013-06-28 10:54:00,74.1,58.4,30.04,SSW,202,4.6,4.6,58,0.00,SCT,,0.00,142.0,WeatherDisplay:10.37,2013-06-28 08:54:00,
2013-06-28 10:55:00,74.1,58.4,30.04,SSW,202,4.6,4.6,58,0.00,SCT,,0.00,142.0,WeatherDisplay:10.37,2013-06-28 08:55:00,
2013-06-28 10:58:00,74.1,58.4,30.04,SSW,209,5.0,5.0,58,0.00,SCT,,0.00,207.0,WeatherDisplay:10.37,2013-06-28 08:58:00,
2013-06-28 11:00:00,74.1,58.4,30.03,SSW,202,7.0,7.0,58,0.00,SCT,,0.00,207.0,WeatherDisplay:10.37,2013-06-28 09:00:00,
2013-06-28 11:01:00,74.1,57.9,30.04,SW,236,6.9,6.9,57,0.00,SCT,,0.00,343.0,WeatherDisplay:10.37,2013-06-28 09:01:00,
2013-06-28 11:03:00,74.4,58.2,30.03,WSW,249,5.8,5.8,57,0.00,FEW,,0.00,904.0,WeatherDisplay:10.37,2013-06-28 09:03:00,
2013-06-28 11:05:00,74.4,57.7,30.03,West,259,6.9,6.9,56,0.00,FEW,,0.00,893.0,WeatherDisplay:10.37,2013-06-28 09:05:00,
2013-06-28 11:06:00,74.5,57.8,30.03,West,280,3.5,3.5,56,0.00,FEW,,0.00,886.0,WeatherDisplay:10.37,2013-06-28 09:06:00,
2013-06-28 11:09:00,74.7,58.5,30.03,West,279,0.0,0.0,57,0.00,FEW,,0.00,232.0,WeatherDisplay:10.37,2013-06-28 09:09:00,
2013-06-28 11:10:00,74.8,58.5,30.03,West,263,11.5,11.5,57,0.00,FEW,,0.00,220.0,WeatherDisplay:10.37,2013-06-28 09:10:00,
2013-06-28 11:11:00,74.9,58.6,30.03,West,259,15.0,15.0,57,0.00,FEW,,0.00,209.0,WeatherDisplay:10.37,2013-06-28 09:11:00,
2013-06-28 11:12:00,74.9,58.6,30.03,WSW,245,11.5,11.5,57,0.00,FEW,,0.00,204.0,WeatherDisplay:10.37,2013-06-28 09:12:00,
2013-06-28 11:14:00,74.8,58.5,30.03,SW,224,8.1,8.1,57,0.00,FEW,,0.00,341.0,WeatherDisplay:10.37,2013-06-28 09:14:00,
2013-06-28 11:15:00,74.5,57.8,30.03,SW,224,8.1,8.1,56,0.00,FEW,,0.00,341.0,WeatherDisplay:10.37,2013-06-28 09:15:00,
2013-06-28 11:16:00,74.5,57.8,30.03,South,189,3.5,0.0,56,0.00,FEW,,0.00,251.0,WeatherDisplay:10.37,2013-06-28 09:16:00,
2013-06-28 11:17:00,74.5,57.8,30.03,SSE,157,0.0,0.0,56,0.00,FEW,,0.00,251.0,WeatherDisplay:10.37,2013-06-28 09:17:00,
2013-06-28 11:19:00,74.5,58.3,30.03,West,266,3.5,3.5,57,0.00,FEW,,0.00,265.0,WeatherDisplay:10.37,2013-06-28 09:19:00,
2013-06-28 11:20:00,74.6,57.9,30.03,West,262,4.6,4.6,56,0.00,FEW,,0.00,265.0,WeatherDisplay:10.37,2013-06-28 09:20:00,
2013-06-28 11:22:00,74.7,58.0,30.03,WSW,258,4.6,4.6,56,0.00,FEW,,0.00,241.0,WeatherDisplay:10.37,2013-06-28 09:22:00,
2013-06-28 11:25:00,74.8,58.5,30.03,SW,217,11.5,11.5,57,0.00,FEW,,0.00,239.0,WeatherDisplay:10.37,2013-06-28 09:25:00,
2013-06-28 11:26:00,74.8,58.5,30.03,WSW,246,10.4,10.4,57,0.00,SCT,,0.00,239.0,WeatherDisplay:10.37,2013-06-28 09:26:00,
2013-06-28 11:27:00,74.8,58.5,30.03,WSW,242,9.2,9.2,57,0.00,SCT,,0.00,243.0,WeatherDisplay:10.37,2013-06-28 09:27:00,
2013-06-28 11:31:00,74.8,58.1,30.03,SW,234,8.1,8.1,56,0.00,SCT,,0.00,251.0,WeatherDisplay:10.37,2013-06-28 09:31:00,
2013-06-28 11:32:00,74.8,58.1,30.04,SW,217,10.4,10.4,56,0.00,SCT,,0.00,251.0,WeatherDisplay:10.37,2013-06-28 09:32:00,
2013-06-28 11:36:00,74.8,58.1,30.04,SW,215,11.5,11.5,56,0.00,SCT,,0.00,197.0,WeatherDisplay:10.37,2013-06-28 09:36:00,
2013-06-28 11:37:00,74.7,58.5,30.03,SW,225,13.0,13.0,57,0.00,SCT,,0.00,186.0,WeatherDisplay:10.37,2013-06-28 09:37:00,
2013-06-28 11:41:00,74.2,58.0,30.04,WSW,251,11.5,11.5,57,0.00,SCT,,0.00,211.0,WeatherDisplay:10.37,2013-06-28 09:41:00,
2013-06-28 11:42:00,74.2,58.0,30.04,WSW,241,11.5,11.5,57,0.00,SCT,,0.00,211.0,WeatherDisplay:10.37,2013-06-28 09:42:00,
2013-06-28 11:43:00,74.1,58.4,30.03,West,270,6.9,6.9,58,0.00,SCT,,0.00,232.0,WeatherDisplay:10.37,2013-06-28 09:43:00,
2013-06-28 11:46:00,74.0,58.3,30.04,WSW,248,8.1,8.1,58,0.00,SCT,,0.00,343.0,WeatherDisplay:10.37,2013-06-28 09:46:00,
2013-06-28 11:47:00,74.0,58.3,30.04,West,261,6.0,6.0,58,0.00,SCT,,0.00,343.0,WeatherDisplay:10.37,2013-06-28 09:47:00,
2013-06-28 11:48:00,74.0,58.3,30.04,SW,225,7.0,7.0,58,0.00,SCT,,0.00,343.0,WeatherDisplay:10.37,2013-06-28 09:48:00,
2013-06-28 11:51:00,74.7,58.5,30.03,WSW,246,8.1,8.1,57,0.00,FEW,,0.00,1034.0,WeatherDisplay:10.37,2013-06-28 09:51:00,
2013-06-28 11:52:00,74.9,58.6,30.03,SSE,151,6.9,6.9,57,0.00,FEW,,0.00,1044.0,WeatherDisplay:10.37,2013-06-28 09:52:00,
2013-06-28 11:53:00,75.1,58.8,30.03,SW,229,5.0,5.0,57,0.00,FEW,,0.00,1044.0,WeatherDisplay:10.37,2013-06-28 09:53:00,
2013-06-28 11:57:00,75.6,58.3,30.03,West,263,10.4,10.4,55,0.00,FEW,,0.00,1044.0,WeatherDisplay:10.37,2013-06-28 09:57:00,
2013-06-28 11:58:00,75.7,58.4,30.04,SW,230,10.0,10.0,55,0.00,CLR,,0.00,1044.0,WeatherDisplay:10.37,2013-06-28 09:58:00,
2013-06-28 12:02:00,75.5,57.7,30.03,SSW,208,8.0,8.0,54,0.00,FEW,,0.00,325.0,WeatherDisplay:10.37,2013-06-28 10:02:00,
2013-06-28 12:03:00,75.5,57.7,30.04,WSW,245,8.1,8.1,54,0.00,FEW,,0.00,325.0,WeatherDisplay:10.37,2013-06-28 10:03:00,
2013-06-28 12:04:00,75.6,57.8,30.04,SSW,202,6.0,6.0,54,0.00,FEW,,0.00,325.0,WeatherDisplay:10.37,2013-06-28 10:04:00,
2013-06-28 12:07:00,76.2,58.9,30.03,South,182,10.4,10.4,55,0.00,FEW,,0.00,967.0,WeatherDisplay:10.37,2013-06-28 10:07:00,
2013-06-28 12:08:00,76.4,58.0,30.03,SW,221,9.2,9.2,53,0.00,FEW,,0.00,969.0,WeatherDisplay:10.37,2013-06-28 10:08:00,
2013-06-28 12:09:00,76.4,58.0,30.03,SSW,211,10.4,10.4,53,0.00,FEW,,0.00,983.0,WeatherDisplay:10.37,2013-06-28 10:09:00,
2013-06-28 12:12:00,76.4,57.5,30.04,SW,236,15.0,15.0,52,0.00,FEW,,0.00,237.0,WeatherDisplay:10.37,2013-06-28 10:12:00,
2013-06-28 12:13:00,76.3,57.4,30.03,SW,221,11.5,11.5,52,0.00,FEW,,0.00,237.0,WeatherDisplay:10.37,2013-06-28 10:13:00,
2013-06-28 12:14:00,76.2,57.8,30.03,WSW,257,6.9,6.9,53,0.00,FEW,,0.00,965.0,WeatherDisplay:10.37,2013-06-28 10:14:00,
2013-06-28 12:17:00,76.1,57.7,30.03,SW,215,10.4,10.4,53,0.00,FEW,,0.00,508.0,WeatherDisplay:10.37,2013-06-28 10:17:00,
2013-06-28 12:18:00,76.1,57.7,30.03,SE,135,6.9,6.9,53,0.00,FEW,,0.00,508.0,WeatherDisplay:10.37,2013-06-28 10:18:00,
2013-06-28 12:19:00,76.2,58.3,30.03,SSW,196,7.0,7.0,54,0.00,FEW,,0.00,508.0,WeatherDisplay:10.37,2013-06-28 10:19:00,
2013-06-28 12:22:00,76.8,58.9,30.03,SSW,205,14.0,14.0,54,0.00,FEW,,0.00,947.0,WeatherDisplay:10.37,2013-06-28 10:22:00,
2013-06-28 12:23:00,76.9,57.9,30.03,SSW,200,13.8,13.8,52,0.00,FEW,,0.00,939.0,WeatherDisplay:10.37,2013-06-28 10:23:00,
2013-06-28 12:24:00,76.8,57.3,30.03,SW,236,12.7,12.7,51,0.00,FEW,,0.00,947.0,WeatherDisplay:10.37,2013-06-28 10:24:00,
2013-06-28 12:28:00,76.7,57.2,30.03,South,180,10.4,10.4,51,0.00,FEW,,0.00,947.0,WeatherDisplay:10.37,2013-06-28 10:28:00,
2013-06-28 12:29:00,76.6,57.1,30.03,West,260,9.2,9.2,51,0.00,CLR,,0.00,946.0,WeatherDisplay:10.37,2013-06-28 10:29:00,
2013-06-28 12:30:00,76.6,57.1,30.03,WSW,244,9.2,9.2,51,0.00,CLR,,0.00,951.0,WeatherDisplay:10.37,2013-06-28 10:30:00,
2013-06-28 12:33:00,76.8,57.8,30.03,WNW,282,9.2,9.2,52,0.00,CLR,,0.00,840.0,WeatherDisplay:10.37,2013-06-28 10:33:00,
2013-06-28 12:35:00,77.2,58.2,30.03,WNW,299,2.3,2.3,52,0.00,CLR,,0.00,840.0,WeatherDisplay:10.37,2013-06-28 10:35:00,
2013-06-28 12:38:00,77.7,57.6,30.03,SW,216,12.7,12.7,50,0.00,CLR,,0.00,1025.0,WeatherDisplay:10.37,2013-06-28 10:38:00,
2013-06-28 12:39:00,77.7,57.6,30.03,SSW,193,11.5,11.5,50,0.00,CLR,,0.00,1025.0,WeatherDisplay:10.37,2013-06-28 10:39:00,
2013-06-28 12:40:00,77.6,57.5,30.03,SW,223,11.5,11.5,50,0.00,CLR,,0.00,1049.0,WeatherDisplay:10.37,2013-06-28 10:40:00,
2013-06-28 12:43:00,77.2,56.6,30.03,South,184,8.1,8.1,49,0.00,FEW,,0.00,318.0,WeatherDisplay:10.37,2013-06-28 10:43:00,
2013-06-28 12:44:00,77.2,56.6,30.03,West,265,8.1,8.1,49,0.00,FEW,,0.00,318.0,WeatherDisplay:10.37,2013-06-28 10:44:00,
2013-06-28 12:45:00,77.2,57.1,30.03,West,279,8.1,8.1,50,0.00,FEW,,0.00,983.0,WeatherDisplay:10.37,2013-06-28 10:45:00,
2013-06-28 12:48:00,77.0,56.9,30.03,West,264,9.2,9.2,50,0.00,FEW,,0.00,248.0,WeatherDisplay:10.37,2013-06-28 10:48:00,
2013-06-28 12:49:00,76.9,56.8,30.03,WSW,246,10.0,10.0,50,0.00,FEW,,0.00,229.0,WeatherDisplay:10.37,2013-06-28 10:49:00,
2013-06-28 12:50:00,76.9,56.8,30.03,SW,222,10.4,10.4,50,0.00,FEW,,0.00,230.0,WeatherDisplay:10.37,2013-06-28 10:50:00,
2013-06-28 12:51:00,76.9,56.8,30.03,WSW,254,6.9,6.9,50,0.00,FEW,,0.00,230.0,WeatherDisplay:10.37,2013-06-28 10:51:00,
2013-06-28 12:53:00,76.8,56.8,30.03,South,173,11.5,11.5,50,0.00,FEW,,0.00,230.0,WeatherDisplay:10.37,2013-06-28 10:53:00,
2013-06-28 12:54:00,76.8,56.8,30.03,SSE,156,7.0,7.0,50,0.00,FEW,,0.00,230.0,WeatherDisplay:10.37,2013-06-28 10:54:00,
2013-06-28 12:56:00,76.8,56.8,30.03,NW,317,9.2,9.2,50,0.00,FEW,,0.00,230.0,WeatherDisplay:10.37,2013-06-28 10:56:00,
2013-06-28 12:58:00,77.0,56.9,30.03,SW,233,6.9,6.9,50,0.00,FEW,,0.00,230.0,WeatherDisplay:10.37,2013-06-28 10:58:00,
2013-06-28 12:59:00,77.2,57.1,30.03,West,277,10.0,10.0,50,0.00,SCT,,0.00,230.0,WeatherDisplay:10.37,2013-06-28 10:59:00,
2013-06-28 13:01:00,77.9,57.8,30.03,SW,236,15.0,15.0,50,0.00,FEW,,0.00,977.0,WeatherDisplay:10.37,2013-06-28 11:01:00,
2013-06-28 13:04:00,77.7,56.4,30.03,SW,219,11.5,11.5,48,0.00,FEW,,0.00,967.0,WeatherDisplay:10.37,2013-06-28 11:04:00,
2013-06-28 13:05:00,77.7,56.4,30.03,WSW,245,11.5,11.5,48,0.00,FEW,,0.00,979.0,WeatherDisplay:10.37,2013-06-28 11:05:00,
2013-06-28 13:06:00,77.5,56.3,30.03,SSW,196,10.4,10.4,48,0.00,FEW,,0.00,986.0,WeatherDisplay:10.37,2013-06-28 11:06:00,
2013-06-28 13:09:00,77.5,56.3,30.03,South,190,10.4,10.4,48,0.00,FEW,,0.00,1016.0,WeatherDisplay:10.37,2013-06-28 11:09:00,
2013-06-28 13:10:00,77.5,56.8,30.03,SW,221,11.5,11.5,49,0.00,CLR,,0.00,1016.0,WeatherDisplay:10.37,2013-06-28 11:10:00,
2013-06-28 13:11:00,77.5,56.8,30.03,South,187,11.5,11.5,49,0.00,FEW,,0.00,267.0,WeatherDisplay:10.37,2013-06-28 11:11:00,
2013-06-28 13:12:00,77.4,56.7,30.03,South,187,11.5,11.5,49,0.00,FEW,,0.00,278.0,WeatherDisplay:10.37,2013-06-28 11:12:00,
2013-06-28 13:15:00,77.2,56.6,30.03,SW,229,10.4,10.4,49,0.00,FEW,,0.00,251.0,WeatherDisplay:10.37,2013-06-28 11:15:00,
2013-06-28 13:16:00,77.0,56.4,30.03,SW,233,14.0,14.0,49,0.00,FEW,,0.00,1016.0,WeatherDisplay:10.37,2013-06-28 11:16:00,
2013-06-28 13:17:00,77.0,56.4,30.03,WSW,242,13.8,13.8,49,0.00,FEW,,0.00,1011.0,WeatherDisplay:10.37,2013-06-28 11:17:00,
2013-06-28 13:20:00,77.5,56.8,30.03,West,270,11.5,11.5,49,0.00,FEW,,0.00,983.0,WeatherDisplay:10.37,2013-06-28 11:20:00,
2013-06-28 13:21:00,77.5,56.3,30.03,SSE,165,6.9,6.9,48,0.00,FEW,,0.00,995.0,WeatherDisplay:10.37,2013-06-28 11:21:00,
2013-06-28 13:22:00,77.5,56.8,30.03,SE,137,5.8,5.8,49,0.00,FEW,,0.00,995.0,WeatherDisplay:10.37,2013-06-28 11:22:00,
2013-06-28 13:25:00,77.7,56.4,30.03,SSW,212,7.0,7.0,48,0.00,FEW,,0.00,221.0,WeatherDisplay:10.37,2013-06-28 11:25:00,
2013-06-28 13:26:00,77.7,56.4,30.03,SW,228,7.0,7.0,48,0.00,FEW,,0.00,232.0,WeatherDisplay:10.37,2013-06-28 11:26:00,
2013-06-28 13:27:00,77.7,56.4,30.03,WSW,240,8.1,8.1,48,0.00,FEW,,0.00,241.0,WeatherDisplay:10.37,2013-06-28 11:27:00,
2013-06-28 13:31:00,77.5,56.3,30.02,SSW,193,11.5,11.5,48,0.00,FEW,,0.00,250.0,WeatherDisplay:10.37,2013-06-28 11:31:00,
2013-06-28 13:32:00,77.5,56.3,30.03,South,191,10.4,10.4,48,0.00,FEW,,0.00,1048.0,WeatherDisplay:10.37,2013-06-28 11:32:00,
2013-06-28 13:36:00,77.8,57.1,30.03,South,189,8.1,8.1,49,0.00,FEW,,0.00,990.0,WeatherDisplay:10.37,2013-06-28 11:36:00,
2013-06-28 13:37:00,78.0,57.3,30.03,WSW,248,10.4,10.4,49,0.00,FEW,,0.00,1013.0,WeatherDisplay:10.37,2013-06-28 11:37:00,
2013-06-28 13:38:00,78.1,57.9,30.03,West,263,15.0,15.0,50,0.00,FEW,,0.00,990.0,WeatherDisplay:10.37,2013-06-28 11:38:00,
2013-06-28 13:41:00,78.1,57.4,30.03,SW,230,14.0,14.0,49,0.00,FEW,,0.00,939.0,WeatherDisplay:10.37,2013-06-28 11:41:00,
2013-06-28 13:42:00,78.1,57.4,30.03,WSW,237,17.3,17.3,49,0.00,CLR,,0.00,977.0,WeatherDisplay:10.37,2013-06-28 11:42:00,
2013-06-28 13:43:00,78.0,57.3,30.03,SW,233,16.1,16.1,49,0.00,CLR,,0.00,986.0,WeatherDisplay:10.37,2013-06-28 11:43:00,
2013-06-28 13:46:00,78.3,57.0,30.03,South,171,11.5,11.5,48,0.00,CLR,,0.00,969.0,WeatherDisplay:10.37,2013-06-28 11:46:00,
2013-06-28 13:47:00,78.6,57.8,30.03,SSW,195,8.1,8.1,49,0.00,CLR,,0.00,977.0,WeatherDisplay:10.37,2013-06-28 11:47:00,
2013-06-28 13:48:00,78.6,56.7,30.03,SSE,147,9.2,9.2,47,0.00,CLR,,0.00,976.0,WeatherDisplay:10.37,2013-06-28 11:48:00,
2013-06-28 13:51:00,78.8,57.4,30.03,SSW,192,10.4,10.4,48,0.00,CLR,,0.00,281.0,WeatherDisplay:10.37,2013-06-28 11:51:00,
2013-06-28 13:52:00,78.8,56.9,30.03,SW,228,10.4,10.4,47,0.00,FEW,,0.00,281.0,WeatherDisplay:10.37,2013-06-28 11:52:00,
2013-06-28 13:53:00,78.8,56.9,30.03,SW,216,9.2,9.2,47,0.00,FEW,,0.00,991.0,WeatherDisplay:10.37,2013-06-28 11:53:00,
2013-06-28 13:54:00,78.8,56.9,30.03,West,262,8.1,8.1,47,0.00,FEW,,0.00,981.0,WeatherDisplay:10.37,2013-06-28 11:54:00,
2013-06-28 13:56:00,79.3,57.3,30.03,SW,230,5.8,5.8,47,0.00,FEW,,0.00,990.0,WeatherDisplay:10.37,2013-06-28 11:56:00,
2013-06-28 13:57:00,79.4,57.4,30.03,SW,236,8.0,8.0,47,0.00,FEW,,0.00,990.0,WeatherDisplay:10.37,2013-06-28 11:57:00,
2013-06-28 13:58:00,79.5,56.9,30.03,SW,227,9.2,9.2,46,0.00,FEW,,0.00,972.0,WeatherDisplay:10.37,2013-06-28 11:58:00,
2013-06-28 13:59:00,79.7,57.1,30.03,WSW,252,10.4,10.4,46,0.00,FEW,,0.00,977.0,WeatherDisplay:10.37,2013-06-28 11:59:00,
2013-06-28 14:01:00,79.6,57.0,30.03,WSW,250,11.5,11.5,46,0.00,FEW,,0.00,991.0,WeatherDisplay:10.37,2013-06-28 12:01:00,
2013-06-28 14:02:00,79.5,56.9,30.03,SW,226,11.0,11.0,46,0.00,FEW,,0.00,953.0,WeatherDisplay:10.37,2013-06-28 12:02:00,
2013-06-28 14:03:00,79.5,56.9,30.03,WSW,254,11.5,11.5,46,0.00,CLR,,0.00,995.0,WeatherDisplay:10.37,2013-06-28 12:03:00,
2013-06-28 14:04:00,79.3,56.7,30.03,WSW,254,13.0,13.0,46,0.00,CLR,,0.00,1018.0,WeatherDisplay:10.37,2013-06-28 12:04:00,
2013-06-28 14:07:00,78.8,56.3,30.03,West,262,13.8,13.8,46,0.00,CLR,,0.00,974.0,WeatherDisplay:10.37,2013-06-28 12:07:00,
2013-06-28 14:08:00,78.6,56.7,30.02,WSW,239,11.5,11.5,47,0.00,CLR,,0.00,972.0,WeatherDisplay:10.37,2013-06-28 12:08:00,
2013-06-28 14:09:00,78.6,56.1,30.02,WSW,252,17.3,17.3,46,0.00,CLR,,0.00,972.0,WeatherDisplay:10.37,2013-06-28 12:09:00,
2013-06-28 14:12:00,78.3,57.0,30.02,West,263,12.7,12.7,48,0.00,CLR,,0.00,979.0,WeatherDisplay:10.37,2013-06-28 12:12:00,
2013-06-28 14:13:00,78.2,56.9,30.02,West,273,12.7,12.7,48,0.00,CLR,,0.00,986.0,WeatherDisplay:10.37,2013-06-28 12:13:00,
2013-06-28 14:14:00,78.0,56.7,30.02,West,280,12.7,12.7,48,0.00,CLR,,0.00,986.0,WeatherDisplay:10.37,2013-06-28 12:14:00,
2013-06-28 14:17:00,78.0,56.7,30.02,SW,230,8.1,8.1,48,0.00,FEW,,0.00,543.0,WeatherDisplay:10.37,2013-06-28 12:17:00,
2013-06-28 14:18:00,78.0,56.1,30.02,West,278,8.0,8.0,47,0.00,FEW,,0.00,963.0,WeatherDisplay:10.37,2013-06-28 12:18:00,
2013-06-28 14:19:00,78.0,56.1,30.02,West,277,8.0,8.0,47,0.00,FEW,,0.00,963.0,WeatherDisplay:10.37,2013-06-28 12:19:00,
2013-06-28 14:22:00,78.5,56.6,30.02,SSW,211,15.0,15.0,47,0.00,FEW,,0.00,935.0,WeatherDisplay:10.37,2013-06-28 12:22:00,
2013-06-28 14:23:00,78.6,56.7,30.02,South,171,11.5,11.5,47,0.00,FEW,,0.00,940.0,WeatherDisplay:10.37,2013-06-28 12:23:00,
2013-06-28 14:24:00,78.6,56.7,30.02,SSW,194,9.2,9.2,47,0.00,FEW,,0.00,940.0,WeatherDisplay:10.37,2013-06-28 12:24:00,
2013-06-28 14:25:00,78.7,57.4,30.02,WSW,258,7.0,7.0,48,0.00,FEW,,0.00,911.0,WeatherDisplay:10.37,2013-06-28 12:25:00,
2013-06-28 14:28:00,79.1,57.1,30.02,WSW,255,15.0,15.0,47,0.00,CLR,,0.00,912.0,WeatherDisplay:10.37,2013-06-28 12:28:00,
2013-06-28 14:29:00,79.0,57.0,30.02,SW,225,15.0,15.0,47,0.00,CLR,,0.00,912.0,WeatherDisplay:10.37,2013-06-28 12:29:00,
2013-06-28 14:30:00,78.7,57.4,30.02,West,265,13.0,13.0,48,0.00,CLR,,0.00,912.0,WeatherDisplay:10.37,2013-06-28 12:30:00,
2013-06-28 14:33:00,78.3,57.0,30.02,West,273,12.0,12.0,48,0.00,CLR,,0.00,954.0,WeatherDisplay:10.37,2013-06-28 12:33:00,
2013-06-28 14:34:00,78.1,56.8,30.02,WSW,242,14.0,14.0,48,0.00,CLR,,0.00,954.0,WeatherDisplay:10.37,2013-06-28 12:34:00,
2013-06-28 14:35:00,77.8,56.5,30.02,WSW,250,16.1,16.1,48,0.00,CLR,,0.00,942.0,WeatherDisplay:10.37,2013-06-28 12:35:00,
2013-06-28 14:38:00,78.0,56.7,30.02,West,265,17.3,17.3,48,0.00,CLR,,0.00,954.0,WeatherDisplay:10.37,2013-06-28 12:38:00,
2013-06-28 14:39:00,78.1,56.8,30.02,West,260,15.0,15.0,48,0.00,CLR,,0.00,954.0,WeatherDisplay:10.37,2013-06-28 12:39:00,
2013-06-28 14:40:00,78.1,55.6,30.02,WSW,250,15.0,15.0,46,0.00,CLR,,0.00,983.0,WeatherDisplay:10.37,2013-06-28 12:40:00,
2013-06-28 14:43:00,78.0,56.1,30.02,SW,232,12.7,12.7,47,0.00,CLR,,0.00,976.0,WeatherDisplay:10.37,2013-06-28 12:43:00,
2013-06-28 14:44:00,78.0,56.1,30.02,SW,226,15.0,15.0,47,0.00,CLR,,0.00,976.0,WeatherDisplay:10.37,2013-06-28 12:44:00,
2013-06-28 14:45:00,78.1,56.8,30.02,West,265,15.0,15.0,48,0.00,CLR,,0.00,976.0,WeatherDisplay:10.37,2013-06-28 12:45:00,
2013-06-28 14:48:00,78.6,57.3,30.02,SSE,167,17.3,17.3,48,0.00,FEW,,0.00,239.0,WeatherDisplay:10.37,2013-06-28 12:48:00,
2013-06-28 14:49:00,78.6,57.3,30.02,South,186,13.8,13.8,48,0.00,FEW,,0.00,239.0,WeatherDisplay:10.37,2013-06-28 12:49:00,
2013-06-28 14:50:00,78.5,57.2,30.02,SSE,163,13.8,13.8,48,0.00,FEW,,0.00,239.0,WeatherDisplay:10.37,2013-06-28 12:50:00,
2013-06-28 14:52:00,78.4,57.7,30.02,SSE,164,11.5,11.5,49,0.00,FEW,,0.00,926.0,WeatherDisplay:10.37,2013-06-28 12:52:00,
2013-06-28 14:53:00,78.6,57.8,30.02,SW,229,9.2,9.2,49,0.00,FEW,,0.00,926.0,WeatherDisplay:10.37,2013-06-28 12:53:00,
2013-06-28 14:54:00,78.6,57.8,30.01,SSW,200,9.2,9.2,49,0.00,FEW,,0.00,926.0,WeatherDisplay:10.37,2013-06-28 12:54:00,
2013-06-28 14:55:00,78.6,57.8,30.02,South,181,9.2,9.2,49,0.00,FEW,,0.00,926.0,WeatherDisplay:10.37,2013-06-28 12:55:00,
2013-06-28 14:57:00,78.8,57.4,30.02,SSW,209,16.1,16.1,48,0.00,FEW,,0.00,928.0,WeatherDisplay:10.37,2013-06-28 12:57:00,
2013-06-28 14:59:00,78.8,56.9,30.02,South,189,6.9,6.9,47,0.00,FEW,,0.00,939.0,WeatherDisplay:10.37,2013-06-28 12:59:00,
2013-06-28 15:00:00,78.8,56.9,30.02,SW,228,5.8,5.8,47,0.00,FEW,,0.00,237.0,WeatherDisplay:10.37,2013-06-28 13:00:00,
2013-06-28 15:02:00,78.9,57.0,30.02,WSW,237,6.9,6.9,47,0.00,FEW,,0.00,257.0,WeatherDisplay:10.37,2013-06-28 13:02:00,
2013-06-28 15:04:00,78.9,57.0,30.02,WSW,241,17.3,17.3,47,0.00,FEW,,0.00,846.0,WeatherDisplay:10.37,2013-06-28 13:04:00,
2013-06-28 15:05:00,78.6,56.1,30.02,SW,233,15.0,15.0,46,0.00,FEW,,0.00,846.0,WeatherDisplay:10.37,2013-06-28 13:05:00,
2013-06-28 15:07:00,78.6,57.3,30.02,SSW,208,11.0,11.0,48,0.00,FEW,,0.00,846.0,WeatherDisplay:10.37,2013-06-28 13:07:00,
2013-06-28 15:09:00,78.6,58.4,30.01,South,185,8.1,8.1,50,0.00,FEW,,0.00,359.0,WeatherDisplay:10.37,2013-06-28 13:09:00,
2013-06-28 15:10:00,78.7,59.0,30.01,SE,134,13.0,13.0,51,0.00,FEW,,0.00,359.0,WeatherDisplay:10.37,2013-06-28 13:10:00,
2013-06-28 15:11:00,78.7,59.0,30.01,SSW,212,12.7,12.7,51,0.00,FEW,,0.00,359.0,WeatherDisplay:10.37,2013-06-28 13:11:00,
2013-06-28 15:12:00,79.0,59.3,30.01,South,179,10.4,10.4,51,0.00,FEW,,0.00,359.0,WeatherDisplay:10.37,2013-06-28 13:12:00,
2013-06-28 15:14:00,79.2,58.4,30.02,SW,226,15.0,15.0,49,0.00,FEW,,0.00,895.0,WeatherDisplay:10.37,2013-06-28 13:14:00,
2013-06-28 15:15:00,79.0,58.2,30.01,South,185,16.1,16.1,49,0.00,FEW,,0.00,886.0,WeatherDisplay:10.37,2013-06-28 13:15:00,
2013-06-28 15:16:00,78.7,57.4,30.01,SSE,148,16.1,16.1,48,0.00,FEW,,0.00,858.0,WeatherDisplay:10.37,2013-06-28 13:16:00,
2013-06-28 15:18:00,78.6,57.8,30.01,South,176,6.9,6.9,49,0.00,FEW,,0.00,814.0,WeatherDisplay:10.37,2013-06-28 13:18:00,
2013-06-28 15:19:00,78.6,57.8,30.01,SW,225,16.0,16.0,49,0.00,FEW,,0.00,814.0,WeatherDisplay:10.37,2013-06-28 13:19:00,
2013-06-28 15:20:00,78.6,57.3,30.01,SSW,211,16.1,16.1,48,0.00,FEW,,0.00,814.0,WeatherDisplay:10.37,2013-06-28 13:20:00,
2013-06-28 15:21:00,78.6,57.3,30.01,SW,215,12.7,12.7,48,0.00,FEW,,0.00,814.0,WeatherDisplay:10.37,2013-06-28 13:21:00,
2013-06-28 15:23:00,78.4,57.1,30.01,SSW,211,6.9,6.9,48,0.00,FEW,,0.00,788.0,WeatherDisplay:10.37,2013-06-28 13:23:00,
2013-06-28 15:24:00,78.4,57.7,30.01,SSW,203,16.1,16.1,49,0.00,FEW,,0.00,782.0,WeatherDisplay:10.37,2013-06-28 13:24:00,
2013-06-28 15:25:00,78.3,57.6,30.01,South,190,16.1,16.1,49,0.00,FEW,,0.00,768.0,WeatherDisplay:10.37,2013-06-28 13:25:00,
2013-06-28 15:26:00,78.5,57.7,30.01,SW,216,14.0,14.0,49,0.00,FEW,,0.00,784.0,WeatherDisplay:10.37,2013-06-28 13:26:00,
2013-06-28 15:28:00,78.4,57.7,30.01,SW,223,12.7,12.7,49,0.00,FEW,,0.00,775.0,WeatherDisplay:10.37,2013-06-28 13:28:00,
2013-06-28 15:29:00,78.6,58.4,30.01,West,275,16.0,16.0,50,0.00,FEW,,0.00,780.0,WeatherDisplay:10.37,2013-06-28 13:29:00,
2013-06-28 15:30:00,78.6,57.8,30.01,SW,232,19.6,19.6,49,0.00,FEW,,0.00,795.0,WeatherDisplay:10.37,2013-06-28 13:30:00,
2013-06-28 15:31:00,78.6,58.4,30.01,West,269,19.6,19.6,50,0.00,FEW,,0.00,798.0,WeatherDisplay:10.37,2013-06-28 13:31:00,
2013-06-28 15:33:00,78.3,57.6,30.01,SW,229,17.3,17.3,49,0.00,FEW,,0.00,271.0,WeatherDisplay:10.37,2013-06-28 13:33:00,
2013-06-28 15:34:00,78.0,57.3,30.01,WSW,247,12.7,12.7,49,0.00,FEW,,0.00,271.0,WeatherDisplay:10.37,2013-06-28 13:34:00,
2013-06-28 15:35:00,77.9,57.8,30.01,SW,224,13.8,13.8,50,0.00,FEW,,0.00,271.0,WeatherDisplay:10.37,2013-06-28 13:35:00,
2013-06-28 15:36:00,77.9,57.8,30.01,SW,222,13.8,13.8,50,0.00,FEW,,0.00,271.0,WeatherDisplay:10.37,2013-06-28 13:36:00,
2013-06-28 15:38:00,78.1,57.9,30.01,SW,235,13.8,13.8,50,0.00,FEW,,0.00,772.0,WeatherDisplay:10.37,2013-06-28 13:38:00,
2013-06-28 15:40:00,78.1,57.9,30.01,SSW,196,17.3,17.3,50,0.00,FEW,,0.00,786.0,WeatherDisplay:10.37,2013-06-28 13:40:00,
2013-06-28 15:41:00,78.1,57.9,30.01,SW,217,11.5,11.5,50,0.00,FEW,,0.00,786.0,WeatherDisplay:10.37,2013-06-28 13:41:00,
2013-06-28 15:43:00,78.1,58.5,30.01,SSW,202,12.7,12.7,51,0.00,FEW,,0.00,786.0,WeatherDisplay:10.37,2013-06-28 13:43:00,
2013-06-28 15:45:00,78.1,58.5,30.01,WSW,251,13.8,13.8,51,0.00,FEW,,0.00,786.0,WeatherDisplay:10.37,2013-06-28 13:45:00,
2013-06-28 15:46:00,78.2,58.0,30.01,SSW,199,16.0,16.0,50,0.00,FEW,,0.00,786.0,WeatherDisplay:10.37,2013-06-28 13:46:00,
2013-06-28 15:49:00,77.5,57.9,30.01,WSW,254,11.5,11.5,51,0.00,FEW,,0.00,200.0,WeatherDisplay:10.37,2013-06-28 13:49:00,
2013-06-28 15:51:00,77.3,58.3,30.01,SW,216,11.0,11.0,52,0.00,FEW,,0.00,200.0,WeatherDisplay:10.37,2013-06-28 13:51:00,
2013-06-28 15:54:00,77.5,58.5,30.01,SSW,198,17.3,17.3,52,0.00,FEW,,0.00,610.0,WeatherDisplay:10.37,2013-06-28 13:54:00,
2013-06-28 15:56:00,77.4,58.9,30.01,SW,217,13.8,13.8,53,0.00,FEW,,0.00,610.0,WeatherDisplay:10.37,2013-06-28 13:56:00,
2013-06-28 15:59:00,77.6,59.1,30.01,SSW,213,13.0,13.0,53,0.00,FEW,,0.00,220.0,WeatherDisplay:10.37,2013-06-28 13:59:00,
2013-06-28 16:01:00,77.6,59.1,30.01,South,183,11.5,11.5,53,0.00,FEW,,0.00,220.0,WeatherDisplay:10.37,2013-06-28 14:01:00,
2013-06-28 16:05:00,77.3,58.8,30.01,SSW,213,16.1,16.1,53,0.00,FEW,,0.00,220.0,WeatherDisplay:10.37,2013-06-28 14:05:00,
2013-06-28 16:06:00,77.3,58.8,30.01,South,180,13.0,13.0,53,0.00,FEW,,0.00,225.0,WeatherDisplay:10.37,2013-06-28 14:06:00,
2013-06-28 16:10:00,77.2,58.7,30.00,SSW,192,7.0,7.0,53,0.00,FEW,,0.00,227.0,WeatherDisplay:10.37,2013-06-28 14:10:00,
2013-06-28 16:11:00,77.2,58.7,30.00,SW,217,16.1,16.1,53,0.00,FEW,,0.00,719.0,WeatherDisplay:10.37,2013-06-28 14:11:00,
2013-06-28 16:12:00,77.2,59.3,30.00,WSW,244,16.1,16.1,54,0.00,FEW,,0.00,719.0,WeatherDisplay:10.37,2013-06-28 14:12:00,
2013-06-28 16:15:00,77.6,59.1,30.01,SSW,196,15.0,15.0,53,0.00,FEW,,0.00,698.0,WeatherDisplay:10.37,2013-06-28 14:15:00,
2013-06-28 16:16:00,77.6,59.1,30.01,SSW,196,13.8,13.8,53,0.00,FEW,,0.00,178.0,WeatherDisplay:10.37,2013-06-28 14:16:00,
2013-06-28 16:17:00,77.5,58.5,30.01,SW,221,14.0,14.0,52,0.00,FEW,,0.00,195.0,WeatherDisplay:10.37,2013-06-28 14:17:00,
2013-06-28 16:20:00,77.2,58.7,30.00,SW,214,11.0,11.0,53,0.00,FEW,,0.00,218.0,WeatherDisplay:10.37,2013-06-28 14:20:00,
2013-06-28 16:21:00,77.3,59.4,30.00,South,175,11.5,11.5,54,0.00,FEW,,0.00,719.0,WeatherDisplay:10.37,2013-06-28 14:21:00,
2013-06-28 16:22:00,77.3,58.8,30.00,South,188,17.0,17.0,53,0.00,FEW,,0.00,719.0,WeatherDisplay:10.37,2013-06-28 14:22:00,
2013-06-28 16:25:00,77.2,58.7,30.01,SSW,195,11.5,11.5,53,0.00,FEW,,0.00,719.0,WeatherDisplay:10.37,2013-06-28 14:25:00,
2013-06-28 16:27:00,77.1,58.6,30.00,SSW,196,10.4,10.4,53,0.00,FEW,,0.00,220.0,WeatherDisplay:10.37,2013-06-28 14:27:00,
2013-06-28 16:28:00,77.1,58.6,30.00,SW,223,11.5,11.5,53,0.00,FEW,,0.00,269.0,WeatherDisplay:10.37,2013-06-28 14:28:00,
2013-06-28 16:30:00,77.1,58.6,30.00,SW,221,12.7,12.7,53,0.00,FEW,,0.00,700.0,WeatherDisplay:10.37,2013-06-28 14:30:00,
2013-06-28 16:32:00,77.3,59.4,30.00,SSW,209,10.4,10.4,54,0.00,FEW,,0.00,696.0,WeatherDisplay:10.37,2013-06-28 14:32:00,
2013-06-28 16:33:00,77.6,59.6,30.00,SSW,201,11.5,11.5,54,0.00,FEW,,0.00,696.0,WeatherDisplay:10.37,2013-06-28 14:33:00,
2013-06-28 16:36:00,77.9,60.4,30.00,South,187,12.7,12.7,55,0.00,FEW,,0.00,638.0,WeatherDisplay:10.37,2013-06-28 14:36:00,
2013-06-28 16:37:00,77.9,60.4,30.00,SSE,162,10.0,10.0,55,0.00,FEW,,0.00,647.0,WeatherDisplay:10.37,2013-06-28 14:37:00,
2013-06-28 16:38:00,77.9,60.4,30.00,SSW,193,11.5,11.5,55,0.00,FEW,,0.00,640.0,WeatherDisplay:10.37,2013-06-28 14:38:00,
2013-06-28 16:41:00,78.4,60.9,30.00,South,188,11.5,11.5,55,0.00,FEW,,0.00,645.0,WeatherDisplay:10.37,2013-06-28 14:41:00,
2013-06-28 16:42:00,78.3,60.8,30.00,SSW,194,16.1,16.1,55,0.00,FEW,,0.00,636.0,WeatherDisplay:10.37,2013-06-28 14:42:00,
2013-06-28 16:43:00,78.3,60.8,30.00,South,184,17.3,17.3,55,0.00,FEW,,0.00,622.0,WeatherDisplay:10.37,2013-06-28 14:43:00,
2013-06-28 16:44:00,78.1,60.6,30.00,South,180,18.4,18.4,55,0.00,FEW,,0.00,622.0,WeatherDisplay:10.37,2013-06-28 14:44:00,
2013-06-28 16:46:00,77.7,60.2,30.00,South,188,16.1,16.1,55,0.00,FEW,,0.00,599.0,WeatherDisplay:10.37,2013-06-28 14:46:00,
2013-06-28 16:47:00,77.5,60.6,29.99,South,189,11.5,11.5,56,0.00,FEW,,0.00,599.0,WeatherDisplay:10.37,2013-06-28 14:47:00,
2013-06-28 16:48:00,77.5,60.6,29.99,SSW,192,13.0,13.0,56,0.00,FEW,,0.00,599.0,WeatherDisplay:10.37,2013-06-28 14:48:00,
2013-06-28 16:49:00,77.4,61.0,29.99,SSE,157,15.0,15.0,57,0.00,FEW,,0.00,599.0,WeatherDisplay:10.37,2013-06-28 14:49:00,
2013-06-28 16:51:00,77.5,61.1,29.99,SSW,207,11.5,11.5,57,0.00,FEW,,0.00,584.0,WeatherDisplay:10.37,2013-06-28 14:51:00,
2013-06-28 16:52:00,77.6,60.7,29.99,SSW,192,11.5,11.5,56,0.00,FEW,,0.00,589.0,WeatherDisplay:10.37,2013-06-28 14:52:00,
2013-06-28 16:53:00,77.7,60.8,30.00,SW,224,11.5,11.5,56,0.00,FEW,,0.00,589.0,WeatherDisplay:10.37,2013-06-28 14:53:00,
2013-06-28 16:55:00,77.9,60.9,30.00,SW,234,16.1,16.1,56,0.00,FEW,,0.00,519.0,WeatherDisplay:10.37,2013-06-28 14:55:00,
2013-06-28 16:57:00,77.6,60.7,29.99,SSW,211,9.2,9.2,56,0.00,FEW,,0.00,519.0,WeatherDisplay:10.37,2013-06-28 14:57:00,
2013-06-28 16:58:00,77.5,60.6,29.99,SE,134,17.3,17.3,56,0.00,FEW,,0.00,519.0,WeatherDisplay:10.37,2013-06-28 14:58:00,
2013-06-28 17:00:00,77.3,60.4,29.99,SSW,213,15.0,15.0,56,0.00,FEW,,0.00,125.0,WeatherDisplay:10.37,2013-06-28 15:00:00,
2013-06-28 17:02:00,77.0,60.1,29.99,SW,215,11.5,11.5,56,0.00,FEW,,0.00,111.0,WeatherDisplay:10.37,2013-06-28 15:02:00,
2013-06-28 17:03:00,76.9,60.0,29.99,SSW,196,12.7,12.7,56,0.00,FEW,,0.00,113.0,WeatherDisplay:10.37,2013-06-28 15:03:00,
2013-06-28 17:05:00,76.6,60.2,29.99,SSW,213,12.7,12.7,57,0.00,FEW,,0.00,113.0,WeatherDisplay:10.37,2013-06-28 15:05:00,
2013-06-28 17:07:00,76.6,60.2,29.99,SSE,162,12.7,12.7,57,0.00,FEW,,0.00,552.0,WeatherDisplay:10.37,2013-06-28 15:07:00,
2013-06-28 17:08:00,76.6,60.7,29.99,South,188,18.0,18.0,58,0.00,FEW,,0.00,552.0,WeatherDisplay:10.37,2013-06-28 15:08:00,
2013-06-28 17:10:00,76.6,60.2,29.99,SSW,210,12.7,12.7,57,0.00,FEW,,0.00,552.0,WeatherDisplay:10.37,2013-06-28 15:10:00,
2013-06-28 17:12:00,76.5,60.1,29.99,SSW,213,11.5,11.5,57,0.00,FEW,,0.00,552.0,WeatherDisplay:10.37,2013-06-28 15:12:00,
2013-06-28 17:13:00,76.5,60.1,29.99,SW,218,11.5,11.5,57,0.00,FEW,,0.00,552.0,WeatherDisplay:10.37,2013-06-28 15:13:00,
2013-06-28 17:14:00,76.5,60.1,29.99,SW,216,11.5,11.5,57,0.00,FEW,,0.00,476.0,WeatherDisplay:10.37,2013-06-28 15:14:00,
2013-06-28 17:15:00,76.4,60.5,29.99,South,185,15.0,15.0,58,0.00,FEW,,0.00,476.0,WeatherDisplay:10.37,2013-06-28 15:15:00,
2013-06-28 17:17:00,76.2,60.3,29.99,South,186,16.1,16.1,58,0.00,FEW,,0.00,142.0,WeatherDisplay:10.37,2013-06-28 15:17:00,
2013-06-28 17:19:00,76.0,60.2,29.99,SW,229,13.8,13.8,58,0.00,FEW,,0.00,142.0,WeatherDisplay:10.37,2013-06-28 15:19:00,
2013-06-28 17:20:00,75.8,60.4,29.99,SSW,199,11.5,11.5,59,0.00,FEW,,0.00,142.0,WeatherDisplay:10.37,2013-06-28 15:20:00,
2013-06-28 17:23:00,75.7,60.4,29.99,SSW,192,12.7,12.7,59,0.00,FEW,,0.00,142.0,WeatherDisplay:10.37,2013-06-28 15:23:00,
2013-06-28 17:24:00,75.7,60.4,29.99,SSW,193,8.1,8.1,59,0.00,FEW,,0.00,142.0,WeatherDisplay:10.37,2013-06-28 15:24:00,
2013-06-28 17:26:00,75.9,60.5,29.99,South,175,10.0,10.0,59,0.00,FEW,,0.00,454.0,WeatherDisplay:10.37,2013-06-28 15:26:00,
2013-06-28 17:29:00,76.0,60.6,29.99,SSW,200,14.0,14.0,59,0.00,FEW,,0.00,439.0,WeatherDisplay:10.37,2013-06-28 15:29:00,
2013-06-28 17:30:00,76.0,60.2,29.98,SW,215,16.1,16.1,58,0.00,FEW,,0.00,439.0,WeatherDisplay:10.37,2013-06-28 15:30:00,
2013-06-28 17:31:00,76.1,60.7,29.98,South,190,11.5,11.5,59,0.00,FEW,,0.00,439.0,WeatherDisplay:10.37,2013-06-28 15:31:00,
2013-06-28 17:34:00,76.4,60.5,29.99,SSW,213,10.4,10.4,58,0.00,FEW,,0.00,425.0,WeatherDisplay:10.37,2013-06-28 15:34:00,
2013-06-28 17:35:00,76.4,60.5,29.99,South,181,10.4,10.4,58,0.00,FEW,,0.00,413.0,WeatherDisplay:10.37,2013-06-28 15:35:00,
2013-06-28 17:36:00,76.5,60.1,29.98,SSW,202,11.5,11.5,57,0.00,FEW,,0.00,413.0,WeatherDisplay:10.37,2013-06-28 15:36:00,
2013-06-28 17:39:00,76.4,60.0,29.98,South,187,12.7,12.7,57,0.00,FEW,,0.00,403.0,WeatherDisplay:10.37,2013-06-28 15:39:00,
2013-06-28 17:40:00,76.4,60.0,29.98,SSE,167,12.7,12.7,57,0.00,FEW,,0.00,403.0,WeatherDisplay:10.37,2013-06-28 15:40:00,
2013-06-28 17:41:00,76.4,60.0,29.98,SSW,200,10.4,10.4,57,0.00,FEW,,0.00,197.0,WeatherDisplay:10.37,2013-06-28 15:41:00,
2013-06-28 17:44:00,76.3,59.9,29.98,South,188,12.7,12.7,57,0.00,FEW,,0.00,406.0,WeatherDisplay:10.37,2013-06-28 15:44:00,
2013-06-28 17:45:00,76.3,59.9,29.98,SSW,201,16.1,16.1,57,0.00,FEW,,0.00,345.0,WeatherDisplay:10.37,2013-06-28 15:45:00,
2013-06-28 17:46:00,76.4,60.0,29.98,South,171,11.5,11.5,57,0.00,FEW,,0.00,401.0,WeatherDisplay:10.37,2013-06-28 15:46:00,
2013-06-28 17:50:00,76.3,59.9,29.98,SSW,200,12.7,12.7,57,0.00,FEW,,0.00,390.0,WeatherDisplay:10.37,2013-06-28 15:50:00,
2013-06-28 17:51:00,76.3,59.9,29.98,SSE,155,11.5,11.5,57,0.00,FEW,,0.00,390.0,WeatherDisplay:10.37,2013-06-28 15:51:00,
2013-06-28 17:55:00,76.4,59.5,29.98,South,169,14.0,14.0,56,0.00,FEW,,0.00,383.0,WeatherDisplay:10.37,2013-06-28 15:55:00,
2013-06-28 17:56:00,76.4,59.5,29.98,SSW,194,16.1,16.1,56,0.00,FEW,,0.00,98.0,WeatherDisplay:10.37,2013-06-28 15:56:00,
2013-06-28 18:00:00,76.4,59.5,29.98,SSE,161,15.0,15.0,56,0.00,FEW,,0.00,387.0,WeatherDisplay:10.37,2013-06-28 16:00:00,
2013-06-28 18:01:00,76.4,59.5,29.98,South,178,15.0,15.0,56,0.00,FEW,,0.00,244.0,WeatherDisplay:10.37,2013-06-28 16:01:00,
2013-06-28 18:02:00,76.4,59.5,29.98,South,175,11.5,11.5,56,0.00,FEW,,0.00,244.0,WeatherDisplay:10.37,2013-06-28 16:02:00,
2013-06-28 18:05:00,76.3,59.9,29.98,SSE,161,6.0,6.0,57,0.00,FEW,,0.00,366.0,WeatherDisplay:10.37,2013-06-28 16:05:00,
2013-06-28 18:06:00,76.2,59.4,29.98,SE,146,11.5,11.5,56,0.00,FEW,,0.00,123.0,WeatherDisplay:10.37,2013-06-28 16:06:00,
2013-06-28 18:07:00,76.1,59.3,29.98,SSE,161,12.7,12.7,56,0.00,FEW,,0.00,123.0,WeatherDisplay:10.37,2013-06-28 16:07:00,
2013-06-28 18:10:00,76.0,59.7,29.98,South,175,12.7,12.7,57,0.00,FEW,,0.00,355.0,WeatherDisplay:10.37,2013-06-28 16:10:00,
2013-06-28 18:11:00,76.0,59.7,29.98,South,179,10.4,10.4,57,0.00,FEW,,0.00,360.0,WeatherDisplay:10.37,2013-06-28 16:11:00,
2013-06-28 18:12:00,76.0,59.7,29.98,South,187,11.5,11.5,57,0.00,FEW,,0.00,316.0,WeatherDisplay:10.37,2013-06-28 16:12:00,
2013-06-28 18:15:00,75.9,59.6,29.98,SSW,194,16.1,16.1,57,0.00,FEW,,0.00,316.0,WeatherDisplay:10.37,2013-06-28 16:15:00,
2013-06-28 18:16:00,75.8,59.5,29.99,SSW,209,15.0,15.0,57,0.00,FEW,,0.00,336.0,WeatherDisplay:10.37,2013-06-28 16:16:00,
2013-06-28 18:17:00,75.7,58.9,29.98,SW,226,13.8,13.8,56,0.00,FEW,,0.00,336.0,WeatherDisplay:10.37,2013-06-28 16:17:00,
2013-06-28 18:21:00,75.8,59.0,29.98,SSW,202,16.1,16.1,56,0.00,FEW,,0.00,315.0,WeatherDisplay:10.37,2013-06-28 16:21:00,
2013-06-28 18:22:00,75.8,58.5,29.99,SSW,200,13.0,13.0,55,0.00,FEW,,0.00,309.0,WeatherDisplay:10.37,2013-06-28 16:22:00,
2013-06-28 18:26:00,76.0,58.2,29.99,SW,226,10.4,10.4,54,0.00,FEW,,0.00,306.0,WeatherDisplay:10.37,2013-06-28 16:26:00,
2013-06-28 18:27:00,76.0,58.2,29.98,SSW,211,10.4,10.4,54,0.00,FEW,,0.00,301.0,WeatherDisplay:10.37,2013-06-28 16:27:00,
2013-06-28 18:31:00,76.6,58.7,29.98,SSW,197,11.5,11.5,54,0.00,FEW,,0.00,265.0,WeatherDisplay:10.37,2013-06-28 16:31:00,
2013-06-28 18:32:00,76.5,58.1,29.98,South,175,11.5,11.5,53,0.00,FEW,,0.00,265.0,WeatherDisplay:10.37,2013-06-28 16:32:00,
2013-06-28 18:33:00,76.5,58.1,29.98,SSW,213,13.8,13.8,53,0.00,FEW,,0.00,265.0,WeatherDisplay:10.37,2013-06-28 16:33:00,
2013-06-28 18:36:00,76.4,57.5,29.97,South,178,11.5,11.5,52,0.00,FEW,,0.00,264.0,WeatherDisplay:10.37,2013-06-28 16:36:00,
2013-06-28 18:37:00,76.4,57.5,29.97,South,178,12.7,12.7,52,0.00,FEW,,0.00,264.0,WeatherDisplay:10.37,2013-06-28 16:37:00,
2013-06-28 18:38:00,76.4,58.0,29.98,SSW,197,14.0,14.0,53,0.00,FEW,,0.00,260.0,WeatherDisplay:10.37,2013-06-28 16:38:00,
2013-06-28 18:41:00,76.0,58.2,29.98,SW,232,11.5,11.5,54,0.00,FEW,,0.00,246.0,WeatherDisplay:10.37,2013-06-28 16:41:00,
2013-06-28 18:42:00,75.9,58.1,29.98,SW,223,11.5,11.5,54,0.00,FEW,,0.00,248.0,WeatherDisplay:10.37,2013-06-28 16:42:00,
2013-06-28 18:43:00,75.9,58.1,29.98,WSW,239,11.5,11.5,54,0.00,FEW,,0.00,248.0,WeatherDisplay:10.37,2013-06-28 16:43:00,
2013-06-28 18:47:00,76.0,58.7,29.98,SSW,199,13.8,13.8,55,0.00,FEW,,0.00,241.0,WeatherDisplay:10.37,2013-06-28 16:47:00,
2013-06-28 18:48:00,76.0,58.7,29.98,SW,228,12.7,12.7,55,0.00,FEW,,0.00,237.0,WeatherDisplay:10.37,2013-06-28 16:48:00,
2013-06-28 18:49:00,76.0,59.2,29.98,SSW,208,12.7,12.7,56,0.00,FEW,,0.00,234.0,WeatherDisplay:10.37,2013-06-28 16:49:00,
2013-06-28 18:52:00,75.8,59.0,29.98,SSW,198,15.0,15.0,56,0.00,FEW,,0.00,223.0,WeatherDisplay:10.37,2013-06-28 16:52:00,
2013-06-28 18:53:00,75.8,58.5,29.98,SW,219,11.5,11.5,55,0.00,FEW,,0.00,221.0,WeatherDisplay:10.37,2013-06-28 16:53:00,
2013-06-28 18:54:00,75.8,59.0,29.98,South,169,11.5,11.5,56,0.00,FEW,,0.00,218.0,WeatherDisplay:10.37,2013-06-28 16:54:00,
2013-06-28 18:57:00,75.8,59.0,29.98,SW,219,11.5,11.5,56,0.00,FEW,,0.00,144.0,WeatherDisplay:10.37,2013-06-28 16:57:00,
2013-06-28 18:58:00,75.8,59.0,29.98,SSW,195,9.2,9.2,56,0.00,FEW,,0.00,144.0,WeatherDisplay:10.37,2013-06-28 16:58:00,
2013-06-28 18:59:00,75.7,58.9,29.98,SW,219,11.5,11.5,56,0.00,FEW,,0.00,207.0,WeatherDisplay:10.37,2013-06-28 16:59:00,
2013-06-28 19:02:00,75.6,58.8,29.98,SW,223,12.7,12.7,56,0.00,FEW,,0.00,186.0,WeatherDisplay:10.37,2013-06-28 17:02:00,
2013-06-28 19:03:00,75.5,59.2,29.98,WSW,254,12.7,12.7,57,0.00,FEW,,0.00,185.0,WeatherDisplay:10.37,2013-06-28 17:03:00,
2013-06-28 19:04:00,75.4,59.1,29.98,SSW,211,12.7,12.7,57,0.00,FEW,,0.00,179.0,WeatherDisplay:10.37,2013-06-28 17:04:00,
2013-06-28 19:05:00,75.4,59.1,29.98,SSW,193,9.2,9.2,57,0.00,FEW,,0.00,179.0,WeatherDisplay:10.37,2013-06-28 17:05:00,
2013-06-28 19:07:00,75.4,59.1,29.98,SSW,194,12.7,12.7,57,0.00,FEW,,0.00,165.0,WeatherDisplay:10.37,2013-06-28 17:07:00,
2013-06-28 19:08:00,75.3,58.5,29.98,South,176,12.7,12.7,56,0.00,FEW,,0.00,160.0,WeatherDisplay:10.37,2013-06-28 17:08:00,
2013-06-28 19:09:00,75.3,58.5,29.98,SSW,212,11.5,11.5,56,0.00,FEW,,0.00,158.0,WeatherDisplay:10.37,2013-06-28 17:09:00,
2013-06-28 19:10:00,75.2,58.4,29.98,South,189,12.0,12.0,56,0.00,FEW,,0.00,155.0,WeatherDisplay:10.37,2013-06-28 17:10:00,
2013-06-28 19:12:00,75.1,58.3,29.98,South,191,11.5,11.5,56,0.00,FEW,,0.00,144.0,WeatherDisplay:10.37,2013-06-28 17:12:00,
2013-06-28 19:13:00,75.1,58.3,29.98,SSE,165,11.5,11.5,56,0.00,FEW,,0.00,142.0,WeatherDisplay:10.37,2013-06-28 17:13:00,
2013-06-28 19:14:00,75.1,58.8,29.98,SSW,193,11.5,11.5,57,0.00,FEW,,0.00,142.0,WeatherDisplay:10.37,2013-06-28 17:14:00,
2013-06-28 19:15:00,75.0,58.7,29.98,SSW,208,11.5,11.5,57,0.00,FEW,,0.00,139.0,WeatherDisplay:10.37,2013-06-28 17:15:00,
2013-06-28 19:17:00,75.0,59.2,29.98,South,178,10.4,10.4,58,0.00,FEW,,0.00,135.0,WeatherDisplay:10.37,2013-06-28 17:17:00,
2013-06-28 19:19:00,75.0,59.2,29.98,South,186,15.0,15.0,58,0.00,FEW,,0.00,132.0,WeatherDisplay:10.37,2013-06-28 17:19:00,
2013-06-28 19:20:00,75.0,59.2,29.98,South,184,13.0,13.0,58,0.00,FEW,,0.00,123.0,WeatherDisplay:10.37,2013-06-28 17:20:00,
2013-06-28 19:22:00,74.8,59.0,29.98,SSW,200,17.3,17.3,58,0.00,FEW,,0.00,123.0,WeatherDisplay:10.37,2013-06-28 17:22:00,
2013-06-28 19:24:00,74.7,58.9,29.98,South,177,15.0,15.0,58,0.00,FEW,,0.00,114.0,WeatherDisplay:10.37,2013-06-28 17:24:00,
2013-06-28 19:25:00,74.6,58.8,29.98,South,184,15.0,15.0,58,0.00,FEW,,0.00,113.0,WeatherDisplay:10.37,2013-06-28 17:25:00,
2013-06-28 19:27:00,74.3,58.6,29.98,SSW,213,10.4,10.4,58,0.00,FEW,,0.00,98.0,WeatherDisplay:10.37,2013-06-28 17:27:00,
2013-06-28 19:29:00,74.3,58.6,29.98,South,171,7.0,7.0,58,0.00,FEW,,0.00,97.0,WeatherDisplay:10.37,2013-06-28 17:29:00,
2013-06-28 19:30:00,74.3,58.6,29.98,SSW,211,8.1,8.1,58,0.00,FEW,,0.00,90.0,WeatherDisplay:10.37,2013-06-28 17:30:00,
2013-06-28 19:32:00,74.3,58.6,29.98,SSW,211,10.4,10.4,58,0.00,FEW,,0.00,86.0,WeatherDisplay:10.37,2013-06-28 17:32:00,
2013-06-28 19:34:00,74.3,59.0,29.98,SSW,198,7.0,7.4,59,0.00,FEW,,0.00,84.0,WeatherDisplay:10.37,2013-06-28 17:34:00,
2013-06-28 19:35:00,74.3,59.0,29.98,SSW,204,11.5,11.5,59,0.00,FEW,,0.00,77.0,WeatherDisplay:10.37,2013-06-28 17:35:00,
2013-06-28 19:37:00,74.2,58.9,29.98,South,186,10.4,10.4,59,0.00,FEW,,0.00,72.0,WeatherDisplay:10.37,2013-06-28 17:37:00,
2013-06-28 19:38:00,74.2,59.4,29.98,South,178,9.2,9.2,60,0.00,FEW,,0.00,70.0,WeatherDisplay:10.37,2013-06-28 17:38:00,
2013-06-28 19:39:00,74.2,59.4,29.98,South,189,9.2,9.2,60,0.00,FEW,,0.00,70.0,WeatherDisplay:10.37,2013-06-28 17:39:00,
2013-06-28 19:40:00,74.1,59.3,29.98,SW,214,9.2,9.2,60,0.00,SCT,,0.00,46.0,WeatherDisplay:10.37,2013-06-28 17:40:00,
2013-06-28 19:42:00,74.0,59.7,29.98,South,173,10.4,10.4,61,0.00,SCT,,0.00,67.0,WeatherDisplay:10.37,2013-06-28 17:42:00,
2013-06-28 19:43:00,74.0,59.7,29.98,SSE,165,8.1,8.1,61,0.00,SCT,,0.00,67.0,WeatherDisplay:10.37,2013-06-28 17:43:00,
2013-06-28 19:45:00,73.9,59.6,29.99,SSW,197,9.2,9.2,61,0.00,SCT,,0.00,62.0,WeatherDisplay:10.37,2013-06-28 17:45:00,
2013-06-28 19:47:00,73.9,60.1,29.99,South,186,11.5,11.5,62,0.00,SCT,,0.00,62.0,WeatherDisplay:10.37,2013-06-28 17:47:00,
2013-06-28 19:48:00,73.8,60.0,29.99,SSE,150,6.9,6.9,62,0.00,SCT,,0.00,63.0,WeatherDisplay:10.37,2013-06-28 17:48:00,
2013-06-28 19:50:00,73.8,60.4,29.99,South,171,6.9,6.9,63,0.00,SCT,,0.00,76.0,WeatherDisplay:10.37,2013-06-28 17:50:00,
2013-06-28 19:51:00,73.8,60.4,29.99,SSE,166,7.0,7.0,63,0.00,SCT,,0.00,77.0,WeatherDisplay:10.37,2013-06-28 17:51:00,
2013-06-28 19:52:00,73.8,60.4,29.99,South,178,8.1,8.1,63,0.00,SCT,,0.00,79.0,WeatherDisplay:10.37,2013-06-28 17:52:00,
2013-06-28 19:53:00,73.8,60.4,29.99,SSW,203,6.9,6.9,63,0.00,SCT,,0.00,72.0,WeatherDisplay:10.37,2013-06-28 17:53:00,
2013-06-28 19:55:00,73.8,60.4,29.99,SE,128,9.2,9.2,63,0.00,SCT,,0.00,69.0,WeatherDisplay:10.37,2013-06-28 17:55:00,
2013-06-28 19:56:00,73.8,60.4,29.99,South,188,9.2,9.2,63,0.00,SCT,,0.00,67.0,WeatherDisplay:10.37,2013-06-28 17:56:00,
2013-06-28 19:58:00,73.8,60.4,29.99,South,188,11.5,11.5,63,0.00,SCT,,0.00,63.0,WeatherDisplay:10.37,2013-06-28 17:58:00,
2013-06-28 20:00:00,73.7,60.8,29.99,South,175,8.0,8.0,64,0.00,SCT,,0.00,46.0,WeatherDisplay:10.37,2013-06-28 18:00:00,
2013-06-28 20:01:00,73.7,60.8,29.99,SW,229,8.1,8.1,64,0.00,SCT,,0.00,40.0,WeatherDisplay:10.37,2013-06-28 18:01:00,
2013-06-28 20:02:00,73.7,60.8,29.99,SSW,206,6.9,6.9,64,0.00,SCT,,0.00,40.0,WeatherDisplay:10.37,2013-06-28 18:02:00,
2013-06-28 20:03:00,73.7,60.8,29.99,South,181,11.0,11.0,64,0.00,SCT,,0.00,35.0,WeatherDisplay:10.37,2013-06-28 18:03:00,
2013-06-28 20:05:00,73.6,60.2,29.99,South,189,9.2,9.2,63,0.00,SCT,,0.00,30.0,WeatherDisplay:10.37,2013-06-28 18:05:00,
2013-06-28 20:06:00,73.6,60.2,29.99,South,182,9.2,9.2,63,0.00,SCT,,0.00,25.0,WeatherDisplay:10.37,2013-06-28 18:06:00,
2013-06-28 20:07:00,73.6,60.2,29.99,South,170,8.1,8.1,63,0.00,SCT,,0.00,21.0,WeatherDisplay:10.37,2013-06-28 18:07:00,
2013-06-28 20:08:00,73.5,60.1,29.99,SE,142,8.1,8.1,63,0.00,SCT,,0.00,21.0,WeatherDisplay:10.37,2013-06-28 18:08:00,
2013-06-28 20:09:00,73.5,60.1,29.99,South,178,9.2,9.2,63,0.00,SCT,,0.00,19.0,WeatherDisplay:10.37,2013-06-28 18:09:00,
2013-06-28 20:10:00,73.4,60.0,29.99,South,177,6.9,6.9,63,0.00,SCT,,0.00,21.0,WeatherDisplay:10.37,2013-06-28 18:10:00,
2013-06-28 20:11:00,73.4,60.0,29.99,SSE,149,4.6,4.6,63,0.00,SCT,,0.00,21.0,WeatherDisplay:10.37,2013-06-28 18:11:00,
2013-06-28 20:12:00,73.4,60.0,29.99,SSE,153,9.2,9.2,63,0.00,SCT,,0.00,21.0,WeatherDisplay:10.37,2013-06-28 18:12:00,
2013-06-28 20:13:00,73.3,59.9,29.99,South,184,9.2,9.2,63,0.00,SCT,,0.00,21.0,WeatherDisplay:10.37,2013-06-28 18:13:00,
2013-06-28 20:14:00,73.2,59.8,29.99,South,184,8.1,8.1,63,0.00,SCT,,0.00,21.0,WeatherDisplay:10.37,2013-06-28 18:14:00,
2013-06-28 20:15:00,73.1,60.2,29.99,SSE,161,13.8,13.8,64,0.00,SCT,,0.00,19.0,WeatherDisplay:10.37,2013-06-28 18:15:00,
2013-06-28 20:16:00,73.1,60.2,29.99,SSW,192,11.5,11.5,64,0.00,SCT,,0.00,18.0,WeatherDisplay:10.37,2013-06-28 18:16:00,
2013-06-28 20:17:00,73.1,60.2,29.99,SSE,164,10.4,10.4,64,0.00,SCT,,0.00,18.0,WeatherDisplay:10.37,2013-06-28 18:17:00,
2013-06-28 20:18:00,73.0,60.1,29.99,SSW,204,8.1,8.1,64,0.00,SCT,,0.00,18.0,WeatherDisplay:10.37,2013-06-28 18:18:00,
2013-06-28 20:19:00,73.0,60.1,29.99,SW,220,8.1,8.1,64,0.00,SCT,,0.00,16.0,WeatherDisplay:10.37,2013-06-28 18:19:00,
2013-06-28 20:20:00,72.9,60.0,29.99,SSW,202,9.2,9.2,64,0.00,SCT,,0.00,14.0,WeatherDisplay:10.37,2013-06-28 18:20:00,
2013-06-28 20:21:00,72.9,60.0,29.98,SSW,199,8.1,8.1,64,0.00,SCT,,0.00,11.0,WeatherDisplay:10.37,2013-06-28 18:21:00,
2013-06-28 20:22:00,72.9,60.0,29.98,SSW,197,8.1,8.1,64,0.00,SCT,,0.00,9.0,WeatherDisplay:10.37,2013-06-28 18:22:00,
2013-06-28 20:24:00,72.8,60.3,29.98,SSW,205,6.9,6.9,65,0.00,SCT,,0.00,9.0,WeatherDisplay:10.37,2013-06-28 18:24:00,
2013-06-28 20:25:00,72.8,60.3,29.99,SSW,196,4.6,0.0,65,0.00,SCT,,0.00,9.0,WeatherDisplay:10.37,2013-06-28 18:25:00,
2013-06-28 20:27:00,72.7,60.3,29.99,SSW,212,3.5,3.5,65,0.00,SCT,,0.00,7.0,WeatherDisplay:10.37,2013-06-28 18:27:00,
2013-06-28 20:29:00,72.7,59.8,29.99,SW,217,6.9,6.9,64,0.00,SCT,,0.00,5.0,WeatherDisplay:10.37,2013-06-28 18:29:00,
2013-06-28 20:30:00,72.5,59.6,29.99,South,188,9.2,9.2,64,0.00,SCT,,0.00,5.0,WeatherDisplay:10.37,2013-06-28 18:30:00,
2013-06-28 20:32:00,72.4,59.1,29.99,SSW,207,6.9,6.9,63,0.00,SCT,,0.00,5.0,WeatherDisplay:10.37,2013-06-28 18:32:00,
2013-06-28 20:33:00,72.4,59.1,29.99,SW,217,9.0,9.0,63,0.00,SCT,,0.00,5.0,WeatherDisplay:10.37,2013-06-28 18:33:00,
2013-06-28 20:34:00,72.3,59.0,29.99,WSW,240,9.2,9.2,63,0.00,SCT,,0.00,5.0,WeatherDisplay:10.37,2013-06-28 18:34:00,
2013-06-28 20:36:00,72.2,58.9,29.99,SW,228,6.9,6.9,63,0.00,SCT,,0.00,0.0,WeatherDisplay:10.37,2013-06-28 18:36:00,
2013-06-28 20:37:00,72.1,58.8,29.99,SW,235,4.6,4.6,63,0.00,SCT,,0.00,0.0,WeatherDisplay:10.37,2013-06-28 18:37:00,
2013-06-28 20:38:00,72.1,58.8,29.99,SW,232,4.6,4.6,63,0.00,SCT,,0.00,0.0,WeatherDisplay:10.37,2013-06-28 18:38:00,
2013-06-28 20:39:00,72.1,58.8,29.99,SW,223,5.8,5.8,63,0.00,SCT,,0.00,0.0,WeatherDisplay:10.37,2013-06-28 18:39:00,
2013-06-28 20:40:00,72.1,58.8,29.99,SSW,206,6.9,6.9,63,0.00,SCT,,0.00,0.0,WeatherDisplay:10.37,2013-06-28 18:40:00,
2013-06-28 20:41:00,72.0,58.7,29.99,SW,222,8.1,8.1,63,0.00,SCT,,0.00,0.0,WeatherDisplay:10.37,2013-06-28 18:41:00,
2013-06-28 20:42:00,72.0,58.7,29.99,WSW,244,8.1,8.1,63,0.00,SCT,,0.00,0.0,WeatherDisplay:10.37,2013-06-28 18:42:00,
2013-06-28 20:43:00,72.0,59.2,29.99,SW,223,4.6,4.6,64,0.00,SCT,,0.00,0.0,WeatherDisplay:10.37,2013-06-28 18:43:00,
2013-06-28 20:45:00,71.9,59.1,29.99,SW,215,4.6,4.6,64,0.00,SCT,,0.00,0.0,WeatherDisplay:10.37,2013-06-28 18:45:00,
2013-06-28 20:46:00,71.8,59.0,29.99,SW,223,6.9,6.9,64,0.00,SCT,,0.00,0.0,WeatherDisplay:10.37,2013-06-28 18:46:00,
2013-06-28 20:47:00,71.8,59.0,29.99,SSW,194,5.8,5.8,64,0.00,SCT,,0.00,0.0,WeatherDisplay:10.37,2013-06-28 18:47:00,
2013-06-28 20:48:00,71.8,59.0,29.99,WSW,246,0.0,0.0,64,0.00,SCT,,0.00,0.0,WeatherDisplay:10.37,2013-06-28 18:48:00,
2013-06-28 20:50:00,71.8,59.0,29.99,SW,221,0.0,0.0,64,0.00,SCT,,0.00,0.0,WeatherDisplay:10.37,2013-06-28 18:50:00,
2013-06-28 20:51:00,71.7,59.3,29.99,SSW,210,5.8,5.8,65,0.00,SCT,,0.00,0.0,WeatherDisplay:10.37,2013-06-28 18:51:00,
2013-06-28 20:52:00,71.7,59.3,29.99,SSW,196,5.8,5.8,65,0.00,SCT,,0.00,0.0,WeatherDisplay:10.37,2013-06-28 18:52:00,
2013-06-28 20:53:00,71.7,59.3,29.99,SSW,193,7.0,7.0,65,0.00,SCT,,0.00,0.0,WeatherDisplay:10.37,2013-06-28 18:53:00,
2013-06-28 20:55:00,71.6,59.2,29.99,SSW,196,4.6,4.6,65,0.00,SCT,,0.00,0.0,WeatherDisplay:10.37,2013-06-28 18:55:00,
2013-06-28 20:56:00,71.6,59.2,30.00,SSW,210,3.5,3.5,65,0.00,SCT,,0.00,0.0,WeatherDisplay:10.37,2013-06-28 18:56:00,
2013-06-28 20:57:00,71.5,59.1,29.99,SW,215,3.5,0.0,65,0.00,SCT,,0.00,0.0,WeatherDisplay:10.37,2013-06-28 18:57:00,
2013-06-28 20:58:00,71.5,59.1,29.99,SSW,200,0.0,0.0,65,0.00,SCT,,0.00,0.0,WeatherDisplay:10.37,2013-06-28 18:58:00,
2013-06-28 21:00:00,71.5,59.1,30.00,SSW,211,0.0,0.0,65,0.00,SCT,,0.00,0.0,WeatherDisplay:10.37,2013-06-28 19:00:00,
2013-06-28 21:01:00,71.5,59.1,30.00,SSW,207,0.0,0.0,65,0.00,SCT,,0.00,0.0,WeatherDisplay:10.37,2013-06-28 19:01:00,
2013-06-28 21:03:00,71.4,59.0,29.99,SSW,195,3.5,3.5,65,0.00,SCT,,0.00,0.0,WeatherDisplay:10.37,2013-06-28 19:03:00,
2013-06-28 21:05:00,71.3,58.9,30.00,SW,226,4.6,4.6,65,0.00,SCT,,0.00,0.0,WeatherDisplay:10.37,2013-06-28 19:05:00,
2013-06-28 21:06:00,71.3,58.9,30.00,SW,224,3.5,3.5,65,0.00,SCT,,0.00,0.0,WeatherDisplay:10.37,2013-06-28 19:06:00,
2013-06-28 21:08:00,71.2,58.8,30.00,WSW,254,0.0,0.0,65,0.00,SCT,,0.00,0.0,WeatherDisplay:10.37,2013-06-28 19:08:00,
2013-06-28 21:09:00,71.2,58.8,30.00,SSW,207,0.0,0.0,65,0.00,SCT,,0.00,0.0,WeatherDisplay:10.37,2013-06-28 19:09:00,
2013-06-28 21:10:00,71.2,58.8,30.00,SW,227,4.6,4.6,65,0.00,SCT,,0.00,0.0,WeatherDisplay:10.37,2013-06-28 19:10:00,
2013-06-28 21:11:00,71.2,58.8,30.00,SW,235,4.0,4.0,65,0.00,SCT,,0.00,0.0,WeatherDisplay:10.37,2013-06-28 19:11:00,
2013-06-28 21:12:00,71.2,58.8,30.00,SSW,210,4.6,4.6,65,0.00,SCT,,0.00,0.0,WeatherDisplay:10.37,2013-06-28 19:12:00,
2013-06-28 21:13:00,71.2,58.8,30.00,WSW,254,3.5,3.5,65,0.00,SCT,,0.00,0.0,WeatherDisplay:10.37,2013-06-28 19:13:00,
2013-06-28 21:14:00,71.1,58.7,30.00,WSW,244,1.1,0.0,65,0.00,SCT,,0.00,0.0,WeatherDisplay:10.37,2013-06-28 19:14:00,
2013-06-28 21:15:00,71.1,58.7,30.00,WSW,243,0.0,0.0,65,0.00,SCT,,0.00,0.0,WeatherDisplay:10.37,2013-06-28 19:15:00,
2013-06-28 21:17:00,71.1,58.7,30.00,WSW,239,0.0,0.0,65,0.00,SCT,,0.00,0.0,WeatherDisplay:10.37,2013-06-28 19:17:00,
2013-06-28 21:18:00,71.0,58.6,30.00,WSW,242,2.0,2.0,65,0.00,SCT,,0.00,0.0,WeatherDisplay:10.37,2013-06-28 19:18:00,
2013-06-28 21:19:00,71.0,58.6,30.00,SW,235,3.5,3.5,65,0.00,SCT,,0.00,0.0,WeatherDisplay:10.37,2013-06-28 19:19:00,
2013-06-28 21:20:00,71.0,58.6,30.00,SW,228,2.3,0.0,65,0.00,SCT,,0.00,0.0,WeatherDisplay:10.37,2013-06-28 19:20:00,
2013-06-28 21:22:00,70.9,58.5,30.00,SSW,206,4.6,4.6,65,0.00,SCT,,0.00,0.0,WeatherDisplay:10.37,2013-06-28 19:22:00,
2013-06-28 21:24:00,70.9,59.0,30.00,SW,229,4.6,4.6,66,0.00,SCT,,0.00,0.0,WeatherDisplay:10.37,2013-06-28 19:24:00,
2013-06-28 21:25:00,70.9,59.0,30.00,SW,219,3.5,3.5,66,0.00,SCT,,0.00,0.0,WeatherDisplay:10.37,2013-06-28 19:25:00,
2013-06-28 21:27:00,70.8,58.9,30.00,SSW,204,3.5,3.5,66,0.00,SCT,,0.00,0.0,WeatherDisplay:10.37,2013-06-28 19:27:00,
2013-06-28 21:29:00,70.8,58.9,30.00,WSW,247,0.0,0.0,66,0.00,SCT,,0.00,0.0,WeatherDisplay:10.37,2013-06-28 19:29:00,
2013-06-28 21:30:00,70.8,58.9,30.00,WSW,252,0.0,0.0,66,0.00,SCT,,0.00,0.0,WeatherDisplay:10.37,2013-06-28 19:30:00,
2013-06-28 21:31:00,70.8,58.9,30.00,WSW,251,0.0,0.0,66,0.00,SCT,,0.00,0.0,WeatherDisplay:10.37,2013-06-28 19:31:00,
2013-06-28 21:32:00,70.7,58.8,30.00,SW,234,0.0,0.0,66,0.00,SCT,,0.00,0.0,WeatherDisplay:10.37,2013-06-28 19:32:00,
2013-06-28 21:34:00,70.7,58.8,30.00,WSW,238,3.5,0.0,66,0.00,SCT,,0.00,0.0,WeatherDisplay:10.37,2013-06-28 19:34:00,
2013-06-28 21:35:00,70.7,58.8,30.00,WSW,238,0.0,0.0,66,0.00,SCT,,0.00,0.0,WeatherDisplay:10.37,2013-06-28 19:35:00,
2013-06-28 21:36:00,70.7,58.8,30.00,WSW,242,0.0,0.0,66,0.00,SCT,,0.00,0.0,WeatherDisplay:10.37,2013-06-28 19:36:00,
2013-06-28 21:37:00,70.6,58.7,30.00,WSW,242,0.0,0.0,66,0.00,SCT,,0.00,0.0,WeatherDisplay:10.37,2013-06-28 19:37:00,
2013-06-28 21:39:00,70.6,58.7,30.00,WSW,242,0.0,0.0,66,0.00,SCT,,0.00,0.0,WeatherDisplay:10.37,2013-06-28 19:39:00,
2013-06-28 21:40:00,70.6,58.7,30.00,WSW,242,0.0,0.0,66,0.00,SCT,,0.00,0.0,WeatherDisplay:10.37,2013-06-28 19:40:00,
2013-06-28 21:41:00,70.6,58.7,30.00,WSW,242,0.0,0.0,66,0.00,SCT,,0.00,0.0,WeatherDisplay:10.37,2013-06-28 19:41:00,
2013-06-28 21:42:00,70.5,58.6,30.00,WSW,242,0.0,0.0,66,0.00,SCT,,0.00,0.0,WeatherDisplay:10.37,2013-06-28 19:42:00,
2013-06-28 21:43:00,70.5,58.6,30.00,WSW,242,0.0,0.0,66,0.00,SCT,,0.00,0.0,WeatherDisplay:10.37,2013-06-28 19:43:00,
2013-06-28 21:44:00,70.5,59.0,30.00,WSW,240,0.0,0.0,67,0.00,SCT,,0.00,0.0,WeatherDisplay:10.37,2013-06-28 19:44:00,
2013-06-28 21:45:00,70.5,59.0,30.00,SSW,199,0.0,0.0,67,0.00,SCT,,0.00,0.0,WeatherDisplay:10.37,2013-06-28 19:45:00,
2013-06-28 21:47:00,70.5,59.0,30.00,SW,229,0.0,0.0,67,0.00,SCT,,0.00,0.0,WeatherDisplay:10.37,2013-06-28 19:47:00,
2013-06-28 21:48:00,70.5,59.0,30.00,WSW,237,3.0,3.0,67,0.00,SCT,,0.00,0.0,WeatherDisplay:10.37,2013-06-28 19:48:00,
2013-06-28 21:50:00,70.4,58.9,30.00,WSW,246,4.0,4.0,67,0.00,SCT,,0.00,0.0,WeatherDisplay:10.37,2013-06-28 19:50:00,
2013-06-28 21:52:00,70.3,58.8,30.00,WSW,240,3.5,3.5,67,0.00,SCT,,0.00,0.0,WeatherDisplay:10.37,2013-06-28 19:52:00,
2013-06-28 21:53:00,70.3,58.8,30.00,WSW,240,0.0,0.0,67,0.00,SCT,,0.00,0.0,WeatherDisplay:10.37,2013-06-28 19:53:00,
2013-06-28 21:55:00,70.3,58.8,30.00,SW,229,0.0,0.0,67,0.00,SCT,,0.00,0.0,WeatherDisplay:10.37,2013-06-28 19:55:00,
2013-06-28 21:56:00,70.3,58.8,30.00,SW,229,0.0,0.0,67,0.00,SCT,,0.00,0.0,WeatherDisplay:10.37,2013-06-28 19:56:00,
2013-06-28 21:57:00,70.3,58.8,30.00,SW,229,0.0,0.0,67,0.00,SCT,,0.00,0.0,WeatherDisplay:10.37,2013-06-28 19:57:00,
2013-06-28 21:58:00,70.3,58.8,30.00,SW,229,0.0,0.0,67,0.00,SCT,,0.00,0.0,WeatherDisplay:10.37,2013-06-28 19:58:00,
2013-06-28 21:59:00,70.3,58.8,30.00,SW,229,0.0,0.0,67,0.00,SCT,,0.00,0.0,WeatherDisplay:10.37,2013-06-28 19:59:00,
2013-06-28 22:00:00,70.3,58.8,30.00,SW,229,0.0,0.0,67,0.00,SCT,,0.00,0.0,WeatherDisplay:10.37,2013-06-28 20:00:00,
2013-06-28 22:01:00,70.2,58.7,30.00,SW,229,0.0,0.0,67,0.00,SCT,,0.00,0.0,WeatherDisplay:10.37,2013-06-28 20:01:00,
2013-06-28 22:02:00,70.2,58.7,30.00,SW,229,0.0,0.0,67,0.00,SCT,,0.00,0.0,WeatherDisplay:10.37,2013-06-28 20:02:00,
2013-06-28 22:04:00,70.2,58.7,30.00,SW,230,0.0,0.0,67,0.00,SCT,,0.00,0.0,WeatherDisplay:10.37,2013-06-28 20:04:00,
2013-06-28 22:05:00,70.2,58.7,30.00,SW,230,0.0,0.0,67,0.00,SCT,,0.00,0.0,WeatherDisplay:10.37,2013-06-28 20:05:00,
2013-06-28 22:07:00,70.2,58.7,30.00,SW,230,0.0,0.0,67,0.00,SCT,,0.00,0.0,WeatherDisplay:10.37,2013-06-28 20:07:00,
2013-06-28 22:09:00,70.1,59.0,30.00,SW,228,0.0,0.0,68,0.00,SCT,,0.00,0.0,WeatherDisplay:10.37,2013-06-28 20:09:00,
2013-06-28 22:10:00,70.1,59.0,30.00,SW,229,0.0,0.0,68,0.00,SCT,,0.00,0.0,WeatherDisplay:10.37,2013-06-28 20:10:00,
2013-06-28 22:12:00,70.1,59.0,30.00,SW,229,0.0,0.0,68,0.00,SCT,,0.00,0.0,WeatherDisplay:10.37,2013-06-28 20:12:00,
2013-06-28 22:13:00,70.1,59.0,30.00,SW,228,0.0,0.0,68,0.00,SCT,,0.00,0.0,WeatherDisplay:10.37,2013-06-28 20:13:00,
2013-06-28 22:14:00,70.0,59.0,29.99,SW,218,0.0,0.0,68,0.00,SCT,,0.00,0.0,WeatherDisplay:10.37,2013-06-28 20:14:00,
2013-06-28 22:15:00,70.0,59.0,29.99,SW,219,0.0,0.0,68,0.00,SCT,,0.00,0.0,WeatherDisplay:10.37,2013-06-28 20:15:00,
2013-06-28 22:17:00,70.0,59.0,29.99,WSW,238,3.5,3.5,68,0.00,SCT,,0.00,0.0,WeatherDisplay:10.37,2013-06-28 20:17:00,
2013-06-28 22:18:00,70.0,59.0,29.99,WSW,238,1.1,0.0,68,0.00,SCT,,0.00,0.0,WeatherDisplay:10.37,2013-06-28 20:18:00,
2013-06-28 22:19:00,70.0,59.0,29.99,SSW,213,0.0,0.0,68,0.00,SCT,,0.00,0.0,WeatherDisplay:10.37,2013-06-28 20:19:00,
2013-06-28 22:20:00,69.9,58.9,29.99,SSW,213,0.0,0.0,68,0.00,SCT,,0.00,0.0,WeatherDisplay:10.37,2013-06-28 20:20:00,
2013-06-28 22:21:00,69.9,58.9,29.99,SSW,213,0.0,0.0,68,0.00,SCT,,0.00,0.0,WeatherDisplay:10.37,2013-06-28 20:21:00,
2013-06-28 22:22:00,69.9,58.9,29.99,SSW,213,0.0,0.0,68,0.00,SCT,,0.00,0.0,WeatherDisplay:10.37,2013-06-28 20:22:00,
2013-06-28 22:23:00,69.9,58.9,29.99,SSW,213,0.0,0.0,68,0.00,SCT,,0.00,0.0,WeatherDisplay:10.37,2013-06-28 20:23:00,
2013-06-28 22:24:00,69.9,58.9,29.99,SSW,213,0.0,0.0,68,0.00,SCT,,0.00,0.0,WeatherDisplay:10.37,2013-06-28 20:24:00,
2013-06-28 22:25:00,69.9,58.9,30.00,SSW,213,0.0,0.0,68,0.00,SCT,,0.00,0.0,WeatherDisplay:10.37,2013-06-28 20:25:00,
2013-06-28 22:26:00,69.9,58.9,29.99,SSW,194,0.0,0.0,68,0.00,SCT,,0.00,0.0,WeatherDisplay:10.37,2013-06-28 20:26:00,
2013-06-28 22:27:00,69.9,58.9,29.99,SSW,194,0.0,0.0,68,0.00,SCT,,0.00,0.0,WeatherDisplay:10.37,2013-06-28 20:27:00,
2013-06-28 22:28:00,69.8,58.8,30.00,SSE,165,0.0,0.0,68,0.00,SCT,,0.00,0.0,WeatherDisplay:10.37,2013-06-28 20:28:00,
2013-06-28 22:29:00,69.8,58.8,30.00,SSE,165,0.0,0.0,68,0.00,SCT,,0.00,0.0,WeatherDisplay:10.37,2013-06-28 20:29:00,
2013-06-28 22:30:00,69.8,58.8,30.00,SSE,165,0.0,0.0,68,0.00,SCT,,0.00,0.0,WeatherDisplay:10.37,2013-06-28 20:30:00,
2013-06-28 22:31:00,69.8,58.8,30.00,SSE,165,0.0,0.0,68,0.00,SCT,,0.00,0.0,WeatherDisplay:10.37,2013-06-28 20:31:00,
2013-06-28 22:32:00,69.8,58.8,30.00,SSE,165,0.0,0.0,68,0.00,SCT,,0.00,0.0,WeatherDisplay:10.37,2013-06-28 20:32:00,
2013-06-28 22:33:00,69.7,58.7,30.00,SSE,153,0.0,0.0,68,0.00,SCT,,0.00,0.0,WeatherDisplay:10.37,2013-06-28 20:33:00,
2013-06-28 22:35:00,69.7,58.7,30.00,ENE,76,3.5,3.5,68,0.00,SCT,,0.00,0.0,WeatherDisplay:10.37,2013-06-28 20:35:00,
2013-06-28 22:36:00,69.7,58.7,30.00,ENE,72,3.5,3.5,68,0.00,SCT,,0.00,0.0,WeatherDisplay:10.37,2013-06-28 20:36:00,
2013-06-28 22:37:00,69.7,58.7,30.00,ENE,65,3.5,3.5,68,0.00,SCT,,0.00,0.0,WeatherDisplay:10.37,2013-06-28 20:37:00,
2013-06-28 22:38:00,69.7,58.7,30.00,ENE,57,3.5,3.5,68,0.00,SCT,,0.00,0.0,WeatherDisplay:10.37,2013-06-28 20:38:00,
2013-06-28 22:40:00,69.7,59.1,30.00,ENE,65,3.5,3.5,69,0.00,SCT,,0.00,0.0,WeatherDisplay:10.37,2013-06-28 20:40:00,
2013-06-28 22:41:00,69.7,59.1,30.00,NE,52,4.6,4.6,69,0.00,SCT,,0.00,0.0,WeatherDisplay:10.37,2013-06-28 20:41:00,
2013-06-28 22:42:00,69.7,59.1,30.00,ENE,59,4.6,4.6,69,0.00,SCT,,0.00,0.0,WeatherDisplay:10.37,2013-06-28 20:42:00,
2013-06-28 22:43:00,69.7,59.1,30.00,NE,55,4.6,4.6,69,0.00,SCT,,0.00,0.0,WeatherDisplay:10.37,2013-06-28 20:43:00,
2013-06-28 22:45:00,69.7,59.1,30.00,ENE,59,2.3,0.0,69,0.00,SCT,,0.00,0.0,WeatherDisplay:10.37,2013-06-28 20:45:00,
2013-06-28 22:46:00,69.7,59.1,30.00,ENE,57,0.0,0.0,69,0.00,SCT,,0.00,0.0,WeatherDisplay:10.37,2013-06-28 20:46:00,
2013-06-28 22:47:00,69.7,59.1,30.00,ENE,58,3.0,3.0,69,0.00,SCT,,0.00,0.0,WeatherDisplay:10.37,2013-06-28 20:47:00,
2013-06-28 22:49:00,69.6,59.0,30.00,NE,46,3.5,3.5,69,0.00,SCT,,0.00,0.0,WeatherDisplay:10.37,2013-06-28 20:49:00,
2013-06-28 22:50:00,69.6,59.0,30.00,ENE,63,4.6,4.6,69,0.00,SCT,,0.00,0.0,WeatherDisplay:10.37,2013-06-28 20:50:00,
2013-06-28 22:52:00,69.6,59.0,30.00,ENE,69,4.6,4.6,69,0.00,SCT,,0.00,0.0,WeatherDisplay:10.37,2013-06-28 20:52:00,
2013-06-28 22:54:00,69.6,59.0,30.00,ENE,65,3.5,3.5,69,0.00,SCT,,0.00,0.0,WeatherDisplay:10.37,2013-06-28 20:54:00,
2013-06-28 22:55:00,69.6,59.0,30.00,NE,52,3.5,3.5,69,0.00,SCT,,0.00,0.0,WeatherDisplay:10.37,2013-06-28 20:55:00,
2013-06-28 22:56:00,69.6,59.0,30.00,ENE,65,3.5,3.5,69,0.00,SCT,,0.00,0.0,WeatherDisplay:10.37,2013-06-28 20:56:00,
2013-06-28 22:57:00,69.6,59.0,30.00,ENE,66,3.5,3.5,69,0.00,SCT,,0.00,0.0,WeatherDisplay:10.37,2013-06-28 20:57:00,
2013-06-28 22:58:00,69.6,59.0,30.00,ENE,69,0.0,0.0,69,0.00,SCT,,0.00,0.0,WeatherDisplay:10.37,2013-06-28 20:58:00,
2013-06-28 22:59:00,69.6,59.0,30.00,ENE,69,0.0,0.0,69,0.00,SCT,,0.00,0.0,WeatherDisplay:10.37,2013-06-28 20:59:00,
2013-06-28 23:01:00,69.6,59.0,30.00,NE,56,0.0,0.0,69,0.00,SCT,,0.00,0.0,WeatherDisplay:10.37,2013-06-28 21:01:00,
2013-06-28 23:02:00,69.6,59.0,30.00,ENE,63,0.0,0.0,69,0.00,SCT,,0.00,0.0,WeatherDisplay:10.37,2013-06-28 21:02:00,
2013-06-28 23:03:00,69.6,59.0,30.00,ENE,64,0.0,0.0,69,0.00,SCT,,0.00,0.0,WeatherDisplay:10.37,2013-06-28 21:03:00,
2013-06-28 23:05:00,69.5,58.9,30.00,ENE,57,0.0,0.0,69,0.00,SCT,,0.00,0.0,WeatherDisplay:10.37,2013-06-28 21:05:00,
2013-06-28 23:06:00,69.6,59.0,30.00,ENE,57,0.0,0.0,69,0.00,SCT,,0.00,0.0,WeatherDisplay:10.37,2013-06-28 21:06:00,
2013-06-28 23:07:00,69.6,59.4,30.00,NE,49,3.0,3.0,70,0.00,SCT,,0.00,0.0,WeatherDisplay:10.37,2013-06-28 21:07:00,
2013-06-28 23:08:00,69.6,59.4,30.00,NE,52,3.5,3.5,70,0.00,SCT,,0.00,0.0,WeatherDisplay:10.37,2013-06-28 21:08:00,
2013-06-28 23:10:00,69.5,59.3,30.00,ENE,59,3.5,3.5,70,0.00,SCT,,0.00,0.0,WeatherDisplay:10.37,2013-06-28 21:10:00,
2013-06-28 23:11:00,69.5,59.3,30.00,ENE,59,3.5,3.5,70,0.00,SCT,,0.00,0.0,WeatherDisplay:10.37,2013-06-28 21:11:00,
2013-06-28 23:12:00,69.5,59.3,30.00,ENE,63,3.5,3.5,70,0.00,SCT,,0.00,0.0,WeatherDisplay:10.37,2013-06-28 21:12:00,
2013-06-28 23:13:00,69.5,59.3,30.00,ENE,65,3.5,3.5,70,0.00,SCT,,0.00,0.0,WeatherDisplay:10.37,2013-06-28 21:13:00,
2013-06-28 23:15:00,69.5,59.3,30.00,ENE,71,0.0,0.0,70,0.00,SCT,,0.00,0.0,WeatherDisplay:10.37,2013-06-28 21:15:00,
2013-06-28 23:17:00,69.5,59.3,30.00,East,100,0.0,0.0,70,0.00,SCT,,0.00,0.0,WeatherDisplay:10.37,2013-06-28 21:17:00,
2013-06-28 23:18:00,69.5,59.3,30.00,SE,126,2.0,2.0,70,0.00,SCT,,0.00,0.0,WeatherDisplay:10.37,2013-06-28 21:18:00,
2013-06-28 23:20:00,69.4,59.2,30.00,ESE,117,2.3,0.0,70,0.00,SCT,,0.00,0.0,WeatherDisplay:10.37,2013-06-28 21:20:00,
2013-06-28 23:22:00,69.5,59.3,30.00,ESE,117,0.0,0.0,70,0.00,SCT,,0.00,0.0,WeatherDisplay:10.37,2013-06-28 21:22:00,
2013-06-28 23:23:00,69.5,59.3,30.00,ESE,117,0.0,0.0,70,0.00,SCT,,0.00,0.0,WeatherDisplay:10.37,2013-06-28 21:23:00,
2013-06-28 23:25:00,69.5,59.3,30.00,SSE,161,2.0,0.0,70,0.00,SCT,,0.00,0.0,WeatherDisplay:10.37,2013-06-28 21:25:00,
2013-06-28 23:27:00,69.5,59.3,30.00,South,172,3.5,3.5,70,0.00,SCT,,0.00,0.0,WeatherDisplay:10.37,2013-06-28 21:27:00,
2013-06-28 23:28:00,69.5,59.3,30.00,South,172,0.0,0.0,70,0.00,SCT,,0.00,0.0,WeatherDisplay:10.37,2013-06-28 21:28:00,
2013-06-28 23:30:00,69.5,59.3,30.00,SSW,194,3.5,3.5,70,0.00,SCT,,0.00,0.0,WeatherDisplay:10.37,2013-06-28 21:30:00,
2013-06-28 23:32:00,69.5,59.3,30.00,SSW,202,3.5,3.5,70,0.00,SCT,,0.00,0.0,WeatherDisplay:10.37,2013-06-28 21:32:00,
2013-06-28 23:33:00,69.5,59.3,30.00,South,173,2.3,2.3,70,0.00,SCT,,0.00,0.0,WeatherDisplay:10.37,2013-06-28 21:33:00,
2013-06-28 23:35:00,69.6,59.4,29.99,South,173,3.5,3.5,70,0.00,SCT,,0.00,0.0,WeatherDisplay:10.37,2013-06-28 21:35:00,
2013-06-28 23:37:00,69.6,59.8,29.99,South,186,3.5,3.5,71,0.00,SCT,,0.00,0.0,WeatherDisplay:10.37,2013-06-28 21:37:00,
2013-06-28 23:38:00,69.6,59.8,29.99,South,180,0.0,0.0,71,0.00,SCT,,0.00,0.0,WeatherDisplay:10.37,2013-06-28 21:38:00,
2013-06-28 23:39:00,69.6,59.8,29.99,South,174,1.1,0.0,71,0.00,SCT,,0.00,0.0,WeatherDisplay:10.37,2013-06-28 21:39:00,
2013-06-28 23:40:00,69.6,59.8,30.00,South,176,3.5,3.5,71,0.00,SCT,,0.00,0.0,WeatherDisplay:10.37,2013-06-28 21:40:00,
2013-06-28 23:42:00,69.6,59.8,29.99,SW,225,4.6,4.6,71,0.00,SCT,,0.00,0.0,WeatherDisplay:10.37,2013-06-28 21:42:00,
2013-06-28 23:43:00,69.6,59.8,29.99,South,184,2.3,2.3,71,0.00,SCT,,0.00,0.0,WeatherDisplay:10.37,2013-06-28 21:43:00,
2013-06-28 23:44:00,69.6,59.8,29.99,SSW,200,0.0,0.0,71,0.00,SCT,,0.00,0.0,WeatherDisplay:10.37,2013-06-28 21:44:00,
2013-06-28 23:45:00,69.5,60.1,30.00,SSW,199,4.0,4.0,72,0.00,SCT,,0.00,0.0,WeatherDisplay:10.37,2013-06-28 21:45:00,
2013-06-28 23:47:00,69.4,60.0,29.99,SSW,192,4.6,4.6,72,0.00,SCT,,0.00,0.0,WeatherDisplay:10.37,2013-06-28 21:47:00,
2013-06-28 23:48:00,69.4,60.0,29.99,South,186,3.5,3.5,72,0.00,SCT,,0.00,0.0,WeatherDisplay:10.37,2013-06-28 21:48:00,
2013-06-28 23:49:00,69.4,60.0,29.99,South,174,1.0,0.0,72,0.00,SCT,,0.00,0.0,WeatherDisplay:10.37,2013-06-28 21:49:00,
2013-06-28 23:50:00,69.4,60.0,29.99,SSW,194,3.5,3.5,72,0.00,SCT,,0.00,0.0,WeatherDisplay:10.37,2013-06-28 21:50:00,
2013-06-28 23:52:00,69.3,59.9,29.99,SSW,207,4.6,4.6,72,0.00,SCT,,0.00,0.0,WeatherDisplay:10.37,2013-06-28 21:52:00,
2013-06-28 23:53:00,69.3,59.9,29.99,SSW,197,5.8,5.8,72,0.00,SCT,,0.00,0.0,WeatherDisplay:10.37,2013-06-28 21:53:00,
2013-06-28 23:54:00,69.2,59.8,29.99,SSW,202,6.9,6.9,72,0.00,SCT,,0.00,0.0,WeatherDisplay:10.37,2013-06-28 21:54:00,
2013-06-28 23:56:00,68.9,59.5,29.99,SSW,198,6.9,6.9,72,0.00,SCT,,0.00,0.0,WeatherDisplay:10.37,2013-06-28 21:56:00,
2013-06-28 23:58:00,68.7,59.7,29.99,South,191,4.6,4.6,73,0.00,SCT,,0.00,0.0,WeatherDisplay:10.37,2013-06-28 21:58:00,
2013-06-28 23:59:00,68.6,59.6,29.99,SSE,157,3.5,3.5,73,0.00,SCT,,0.00,0.0,WeatherDisplay:10.37,2013-06-28 21:59:00,